Eltham High School

Historical Weather Data

                  Temp     Hi    Low   Out         Wind        Wind    Hi    Hi   Wind   Heat          THSW                Rain  Solar   Solar Hi Solar         UV    Hi     Heat    Cool    In     In          Wind  Wind    ISS   Arc.
  Date    Time     Out   Temp   Temp   Hum    Dew Speed   Dir   Run Speed   Dir  Chill  Index    THW  Index   Bar    Rain  Rate   Rad.  Energy    Rad.    UV   Dose   UV     D-D     D-D    Temp   Hum     ET   Samp   Tx   Recept  Int.
------------------------------------------------------------------------------------------------------------------------------------------------------------------------------------------------------------------------------------------
19/05/18 12:30a    8.1    8.3    7.9    95    7.3   0.0   ---  0.00   0.0   ---    8.1    8.2    8.2    6.7  1037.9  0.00   0.0     0     0.00      0     0.0  0.00   0.0   0.214   0.000   27.8    36    0.00   700    1    100.0   30 
19/05/18  1:00a    8.2    8.2    8.0    96    7.6   0.0   ---  0.00   0.0   ---    8.2    8.4    8.4    6.9  1038.0  0.00   0.0     0     0.00      0     0.0  0.00   0.0   0.211   0.000   27.8    36    0.00   702    1    100.0   30 
19/05/18  1:30a    8.3    8.4    8.2    95    7.6   0.0   ---  0.00   0.0   ---    8.3    8.5    8.5    7.0  1037.9  0.00   0.0     0     0.00      0     0.0  0.00   0.0   0.208   0.000   27.7    35    0.00   699    1    100.0   30 
19/05/18  2:00a    8.2    8.3    8.2    96    7.6   0.0   ---  0.00   0.0   ---    8.2    8.3    8.3    6.8  1037.9  0.00   0.0     0     0.00      0     0.0  0.00   0.0   0.212   0.000   27.6    35    0.00   701    1    100.0   30 
19/05/18  2:30a    8.3    8.3    8.1    96    7.7   0.0   ---  0.00   0.0   ---    8.3    8.5    8.5    7.0  1037.9  0.00   0.0     0     0.00      0     0.0  0.00   0.0   0.208   0.000   27.6    35    0.00   701    1    100.0   30 
19/05/18  3:00a    8.6    8.7    8.3    96    8.0   0.0   ---  0.00   0.0   ---    8.6    8.8    8.8    7.4  1037.9  0.00   0.0     0     0.00      0     0.0  0.00   0.0   0.203   0.000   27.6    35    0.00   700    1    100.0   30 
19/05/18  3:30a    8.8    8.8    8.6    96    8.2   0.0   ---  0.00   0.0   ---    8.8    9.0    9.0    7.6  1037.8  0.25   0.0     0     0.00      0     0.0  0.00   0.0   0.199   0.000   27.6    35    0.00   700    1    100.0   30 
19/05/18  4:00a    8.8    8.8    8.7    96    8.2   0.0   ---  0.00   0.0   ---    8.8    9.0    9.0    7.6  1037.7  0.00   0.0     0     0.00      0     0.0  0.00   0.0   0.199   0.000   27.4    34    0.00   702    1    100.0   30 
19/05/18  4:30a    8.7    8.8    8.7    96    8.1   0.0   ---  0.00   0.0   ---    8.7    8.9    8.9    7.5  1037.7  0.00   0.0     0     0.00      0     0.0  0.00   0.0   0.200   0.000   27.4    34    0.00   703    1    100.0   30 
19/05/18  5:00a    8.8    8.8    8.7    96    8.2   0.0   ---  0.00   0.0   ---    8.8    9.0    9.0    7.6  1037.7  0.00   0.0     0     0.00      0     0.0  0.00   0.0   0.199   0.000   27.4    34    0.00   700    1    100.0   30 
19/05/18  5:30a    8.8    8.8    8.8    96    8.2   0.0   ---  0.00   0.0   ---    8.8    9.0    9.0    7.6  1037.9  0.00   0.0     0     0.00      0     0.0  0.00   0.0   0.199   0.000   27.3    34    0.00   700    1    100.0   30 
19/05/18  6:00a    9.1    9.1    8.8    97    8.6   0.0   ---  0.00   0.0   ---    9.1    9.3    9.3    7.9  1038.0  0.00   0.0     0     0.00      0     0.0  0.00   0.0   0.193   0.000   27.3    34    0.00   703    1    100.0   30 
19/05/18  6:30a    9.2    9.2    9.1    96    8.6   0.0   ---  0.00   0.0   ---    9.2    9.5    9.5    8.1  1038.0  0.00   0.0     0     0.00      0     0.0  0.00   0.0   0.190   0.000   27.3    34    0.00   701    1    100.0   30 
19/05/18  7:00a    9.2    9.2    9.2    96    8.6   0.0   ---  0.00   0.0   ---    9.2    9.5    9.5    8.1  1038.3  0.00   0.0     0     0.00      0     0.0  0.00   0.0   0.190   0.000   27.3    34    0.00   676    1     98.8   30 
19/05/18  7:30a    9.3    9.3    9.2    97    8.9   0.0   ---  0.00   0.0   ---    9.3    9.6    9.6    8.2  1038.6  0.00   0.0     1     0.04      5     0.0  0.00   0.0   0.188   0.000   27.2    34    0.00   700    1    100.0   30 
19/05/18  8:00a    9.4    9.5    9.3    97    9.0   0.0   ---  0.00   0.0   ---    9.4    9.7    9.7    8.6  1038.7  0.00   0.0    22     0.95     44     0.0  0.00   0.0   0.185   0.000   27.2    34    0.00   701    1    100.0   30 
19/05/18  8:30a    9.6    9.6    9.4    97    9.2   0.0   ---  0.00   0.0   ---    9.6    9.9    9.9    9.9  1039.0  0.00   0.0    44     1.89     88     0.0  0.00   0.0   0.182   0.000   27.2    34    0.00   701    1    100.0   30 
19/05/18  9:00a   10.3   10.3    9.7    97    9.9   0.0   ---  0.00   0.0   ---   10.3   10.6   10.6   12.4  1039.3  0.00   0.0   133     5.72    199     0.0  0.00   0.0   0.167   0.000   27.3    34    0.05   673    1     98.4   30 
19/05/18  9:30a   10.5   10.5   10.3    97   10.0   0.0   ---  0.00   0.0   ---   10.5   10.8   10.8   12.3  1039.2  0.00   0.0   128     5.50    160     0.0  0.00   0.0   0.163   0.000   27.3    34    0.00   702    1    100.0   30 
19/05/18 10:00a   10.9   10.9   10.5    97   10.4   0.0   ---  0.00   0.0   ---   10.9   11.1   11.1   13.0  1039.2  0.00   0.0   160     6.88    218     0.0  0.00   0.0   0.155   0.000   27.4    34    0.08   701    1    100.0   30 
19/05/18 10:30a   11.0   11.1   10.8    95   10.2   0.0    SW  0.00   4.8    SW   11.0   11.2   11.2   13.3  1039.0  0.00   0.0   185     7.96    204     0.2  0.04   0.5   0.153   0.000   27.6    34    0.00   701    1    100.0   30 
19/05/18 11:00a   12.3   12.3   11.0    85    9.9   0.0   WSW  0.00   4.8    SW   12.3   12.3   12.3   14.9  1039.0  0.00   0.0   230     9.89    243     0.7  0.15   0.8   0.125   0.000   27.7    34    0.10   702    1    100.0   30 
19/05/18 11:30a   13.4   13.4   12.3    77    9.5   0.0   WSW  0.00   4.8   WSW   13.4   13.2   13.2   16.2  1038.7  0.00   0.0   262    11.27    308     0.9  0.19   1.0   0.102   0.000   27.8    34    0.00   701    1    100.0   30 
19/05/18 12:00p   13.9   13.9   13.4    68    8.1   0.0   WSW  0.00   6.4   WSW   13.9   13.4   13.4   16.2  1038.3  0.00   0.0   255    10.97    274     1.0  0.21   1.1   0.093   0.000   27.8    34    0.13   700    1    100.0   30 
19/05/18 12:30p   14.1   14.1   13.8    64    7.3   0.0   WSW  0.00  11.3   WSW   14.1   13.4   13.4   15.6  1037.9  0.00   0.0   213     9.16    255     0.9  0.19   1.0   0.089   0.000   27.9    34    0.00   700    1    100.0   30 
19/05/18  1:00p   14.0   14.1   14.0    64    7.3   0.0   WSW  0.00   8.0   WSW   14.0   13.4   13.4   14.7  1037.6  0.00   0.0   151     6.49    183     0.4  0.09   0.7   0.090   0.000   28.1    34    0.10   701    1    100.0   30 
19/05/18  1:30p   14.4   14.4   14.0    63    7.4   0.0   WNW  0.00  11.3   WNW   14.4   13.8   13.8   15.6  1037.5  0.00   0.0   183     7.87    221     0.6  0.13   0.8   0.082   0.000   28.1    34    0.00   700    1    100.0   30 
19/05/18  2:00p   14.5   14.5   14.3    63    7.5   0.0   NNW  0.00  11.3   WNW   14.5   13.9   13.9   15.6  1037.3  0.00   0.0   169     7.27    188     0.5  0.11   0.6   0.080   0.000   28.2    34    0.10   703    1    100.0   30 
19/05/18  2:30p   14.8   14.8   14.5    60    7.1   0.0    NW  0.00  11.3    NW   14.8   14.1   14.1   16.2  1037.0  0.00   0.0   189     8.13    262     0.6  0.13   1.0   0.074   0.000   28.1    34    0.00   697    1    100.0   30 
19/05/18  3:00p   14.7   14.8   14.7    62    7.5   0.0     W  0.00  11.3     W   14.7   14.0   14.0   15.8  1036.9  0.00   0.0   153     6.58    188     0.2  0.04   0.5   0.076   0.000   28.2    34    0.10   702    1    100.0   30 
19/05/18  3:30p   14.3   14.7   14.3    65    7.8   0.0     W  0.00   4.8     W   14.3   13.7   13.7   14.6  1036.9  0.00   0.0    92     3.96    107     0.0  0.00   0.0   0.084   0.000   28.1    34    0.00   701    1    100.0   30 
19/05/18  4:00p   14.3   14.3   14.2    66    8.0   0.0   ---  0.00   0.0   ---   14.3   13.7   13.7   14.3  1036.8  0.00   0.0    73     3.14    109     0.0  0.00   0.0   0.084   0.000   28.2    33    0.05   696    1    100.0   30 
19/05/18  4:30p   14.2   14.3   14.2    65    7.7   0.0   ---  0.00   0.0   ---   14.2   13.7   13.7   13.9  1036.9  0.00   0.0    54     2.32     62     0.0  0.00   0.0   0.086   0.000   28.2    33    0.00   699    1    100.0   30 
19/05/18  5:00p   13.8   14.2   13.8    66    7.6   0.0     W  0.00   9.7     W   13.8   13.3   13.3   12.0  1037.2  0.00   0.0    23     0.99     42     0.0  0.00   0.0   0.094   0.000   28.2    33    0.03   701    1    100.0   30 
19/05/18  5:30p   13.4   13.9   13.4    66    7.2   0.0     W  0.00   8.0     W   13.4   12.8   12.8   11.3  1037.2  0.00   0.0     2     0.09      7     0.0  0.00   0.0   0.103   0.000   28.2    33    0.00   700    1    100.0   30 
19/05/18  6:00p   12.7   13.4   12.7    68    6.9   0.0     W  0.00   8.0     W   12.7   12.2   12.2   10.6  1037.2  0.00   0.0     0     0.00      0     0.0  0.00   0.0   0.118   0.000   28.2    33    0.00   700    1    100.0   30 
19/05/18  6:30p   12.3   12.7   12.3    71    7.2   0.0   ---  0.00   0.0   ---   12.3   11.9   11.9   10.3  1037.3  0.00   0.0     0     0.00      0     0.0  0.00   0.0   0.125   0.000   28.1    33    0.00   702    1    100.0   30 
19/05/18  7:00p   11.3   12.3   11.3    76    7.3   0.0   ---  0.00   0.0   ---   11.3   11.1   11.1    9.5  1037.3  0.00   0.0     0     0.00      0     0.0  0.00   0.0   0.146   0.000   28.1    33    0.03   701    1    100.0   30 
19/05/18  7:30p   11.4   11.4   11.2    79    7.9   0.0   ---  0.00   0.0   ---   11.4   11.2   11.2    9.7  1037.5  0.00   0.0     0     0.00      0     0.0  0.00   0.0   0.145   0.000   27.9    33    0.00   702    1    100.0   30 
19/05/18  8:00p   11.6   11.6   11.4    77    7.7   0.0   ---  0.00   0.0   ---   11.6   11.4   11.4    9.8  1037.2  0.00   0.0     0     0.00      0     0.0  0.00   0.0   0.140   0.000   27.8    33    0.03   700    1    100.0   30 
19/05/18  8:30p   12.0   12.0   11.6    74    7.5   0.0     W  0.00   1.6     W   12.0   11.7   11.7   10.1  1037.1  0.00   0.0     0     0.00      0     0.0  0.00   0.0   0.132   0.000   27.8    33    0.00   702    1    100.0   30 
19/05/18  9:00p   12.2   12.2   12.0    73    7.5   0.0   ---  0.00   0.0   ---   12.2   11.9   11.9   10.3  1037.2  0.00   0.0     0     0.00      0     0.0  0.00   0.0   0.127   0.000   27.8    33    0.03   703    1    100.0   30 
19/05/18  9:30p   12.2   12.3   12.2    72    7.3   0.0   ---  0.00   0.0   ---   12.2   11.9   11.9   10.3  1037.0  0.00   0.0     0     0.00      0     0.0  0.00   0.0   0.127   0.000   27.8    33    0.00   700    1    100.0   30 
19/05/18 10:00p   11.6   12.2   11.6    73    6.9   0.0   ---  0.00   0.0   ---   11.6   11.2   11.2    9.6  1037.1  0.00   0.0     0     0.00      0     0.0  0.00   0.0   0.141   0.000   27.8    33    0.03   702    1    100.0   30 
19/05/18 10:30p   11.0   11.6   11.0    77    7.1   0.0   ---  0.00   0.0   ---   11.0   10.8   10.8    9.2  1036.7  0.00   0.0     0     0.00      0     0.0  0.00   0.0   0.153   0.000   27.7    33    0.00   700    1    100.0   30 
19/05/18 11:00p   11.6   11.6   11.0    74    7.1   0.0     W  0.00   8.0     W   11.6   11.3   11.3    9.7  1036.7  0.00   0.0     0     0.00      0     0.0  0.00   0.0   0.141   0.000   27.7    33    0.03   699    1    100.0   30 
19/05/18 11:30p   12.1   12.1   11.6    72    7.2   0.0     W  0.00   9.7     W   12.1   11.7   11.7   10.1  1036.4  0.00   0.0     0     0.00      0     0.0  0.00   0.0   0.131   0.000   27.7    32    0.00   701    1    100.0   30 
20/05/18 12:00a   12.1   12.1   12.1    72    7.2   0.0     W  0.00   3.2     W   12.1   11.7   11.7   10.1  1036.4  0.00   0.0     0     0.00      0     0.0  0.00   0.0   0.131   0.000   27.6    32    0.03   702    1    100.0   30 
20/05/18 12:30a   12.2   12.2   12.1    72    7.3   0.0   ---  0.00   0.0   ---   12.2   11.8   11.8   10.2  1036.2  0.00   0.0     0     0.00      0     0.0  0.00   0.0   0.128   0.000   27.7    32    0.00   702    1    100.0   30 
20/05/18  1:00a   12.2   12.2   12.1    73    7.5   0.0     W  0.00   8.0     W   12.2   11.9   11.9   10.3  1036.0  0.00   0.0     0     0.00      0     0.0  0.00   0.0   0.127   0.000   27.7    32    0.03   700    1    100.0   30 
20/05/18  1:30a   12.2   12.2   12.2    74    7.7   0.0     W  0.00   8.0     W   12.2   11.9   11.9   10.3  1035.5  0.00   0.0     0     0.00      0     0.0  0.00   0.0   0.128   0.000   27.6    32    0.00   703    1    100.0   30 
20/05/18  2:00a   12.2   12.2   12.2    74    7.7   0.0     W  0.00   8.0     W   12.2   11.9   11.9   10.3  1035.4  0.00   0.0     0     0.00      0     0.0  0.00   0.0   0.127   0.000   27.6    32    0.03   702    1    100.0   30 
20/05/18  2:30a   12.3   12.3   12.2    74    7.8   0.0     W  0.00  12.9     W   12.3   12.1   12.1   10.5  1035.2  0.00   0.0     0     0.00      0     0.0  0.00   0.0   0.125   0.000   27.6    32    0.00   698    1    100.0   30 
20/05/18  3:00a   12.3   12.3   12.3    75    8.0   0.0   ---  0.00   0.0   ---   12.3   12.0   12.0   10.4  1035.1  0.00   0.0     0     0.00      0     0.0  0.00   0.0   0.126   0.000   27.6    32    0.03   701    1    100.0   30 
20/05/18  3:30a   12.3   12.3   12.2    76    8.2   0.0   ---  0.00   0.0   ---   12.3   12.0   12.0   10.4  1034.8  0.00   0.0     0     0.00      0     0.0  0.00   0.0   0.126   0.000   27.6    32    0.00   700    1    100.0   30 
20/05/18  4:00a   12.4   12.4   12.3    76    8.3   0.0   ---  0.00   0.0   ---   12.4   12.1   12.1   10.6  1034.8  0.00   0.0     0     0.00      0     0.0  0.00   0.0   0.124   0.000   27.6    32    0.03   698    1    100.0   30 
20/05/18  4:30a   12.4   12.4   12.4    77    8.5   0.0   ---  0.00   0.0   ---   12.4   12.2   12.2   10.6  1034.8  0.00   0.0     0     0.00      0     0.0  0.00   0.0   0.124   0.000   27.6    32    0.00   701    1    100.0   30 
20/05/18  5:00a   12.3   12.4   12.3    78    8.6   0.0   ---  0.00   0.0   ---   12.3   12.1   12.1   10.5  1034.8  0.00   0.0     0     0.00      0     0.0  0.00   0.0   0.126   0.000   27.6    32    0.03   701    1    100.0   30 
20/05/18  5:30a   12.1   12.3   12.1    80    8.8   0.0   ---  0.00   0.0   ---   12.1   11.9   11.9   10.4  1035.1  0.00   0.0     0     0.00      0     0.0  0.00   0.0   0.130   0.000   27.6    32    0.00   701    1    100.0   30 
20/05/18  6:00a   11.9   12.1   11.9    82    9.0   0.0   ---  0.00   0.0   ---   11.9   11.8   11.8   10.3  1035.2  0.00   0.0     0     0.00      0     0.0  0.00   0.0   0.133   0.000   27.4    32    0.03   702    1    100.0   30 
20/05/18  6:30a   12.2   12.2   11.9    84    9.5   0.0   ---  0.00   0.0   ---   12.2   12.1   12.1   10.6  1035.5  0.00   0.0     0     0.00      0     0.0  0.00   0.0   0.128   0.000   27.4    32    0.00   702    1    100.0   30 
20/05/18  7:00a   12.2   12.2   12.2    87   10.1   0.0     W  0.00   8.0     W   12.2   12.2   12.2   10.7  1035.8  0.00   0.0     0     0.00      0     0.0  0.00   0.0   0.128   0.000   27.4    32    0.00   698    1    100.0   30 
20/05/18  7:30a   11.9   12.2   11.9    89   10.2   0.0     W  0.00   4.8     W   11.9   12.0   12.0   10.5  1036.0  0.00   0.0     0     0.00      0     0.0  0.00   0.0   0.133   0.000   27.4    32    0.00   699    1    100.0   30 
20/05/18  8:00a   12.1   12.1   11.9    89   10.3   0.0   ---  0.00   0.0   ---   12.1   12.1   12.1   10.7  1036.2  0.00   0.0     7     0.30     18     0.0  0.00   0.0   0.131   0.000   27.4    33    0.00   700    1    100.0   30 
20/05/18  8:30a   12.3   12.3   12.1    89   10.5   0.0   ---  0.00   0.0   ---   12.3   12.3   12.3   11.6  1036.5  0.00   0.0    16     0.69     26     0.0  0.00   0.0   0.126   0.000   27.4    33    0.00   702    1    100.0   30 
20/05/18  9:00a   12.9   12.9   12.3    87   10.8   0.0     W  0.00   3.2     W   12.9   12.9   12.9   12.5  1036.6  0.00   0.0    32     1.38     56     0.0  0.00   0.0   0.113   0.000   27.4    33    0.03   699    1    100.0   30 
20/05/18  9:30a   13.6   13.6   12.9    84   11.0   0.0     W  0.00  11.3   WNW   13.6   13.6   13.6   14.0  1036.3  0.00   0.0    73     3.14    107     0.0  0.00   0.0   0.098   0.000   27.6    33    0.00   700    1    100.0   30 
20/05/18 10:00a   14.0   14.0   13.6    81   10.8   0.0   WNW  0.00   6.4   WNW   14.0   13.9   13.9   13.8  1036.4  0.00   0.0    55     2.37     86     0.0  0.00   0.0   0.090   0.000   27.6    33    0.03   701    1    100.0   30 
20/05/18 10:30a   14.4   14.4   14.0    80   11.0   0.0   WNW  0.00   8.0   WNW   14.4   14.3   14.3   14.6  1036.4  0.00   0.0    79     3.40    107     0.0  0.00   0.0   0.082   0.000   27.7    33    0.00   673    1     98.4   30 
20/05/18 11:00a   15.0   15.0   14.4    78   11.2   0.0   WNW  0.00   8.0   WNW   15.0   14.8   14.8   15.8  1036.2  0.00   0.0   119     5.12    250     0.1  0.02   0.8   0.069   0.000   27.8    33    0.05   702    1    100.0   30 
20/05/18 11:30a   15.2   15.2   14.9    78   11.4   0.0   WNW  0.00  11.3   WNW   15.2   15.0   15.0   15.1  1036.2  0.00   0.0    71     3.05    130     0.0  0.00   0.0   0.066   0.000   27.8    33    0.00   697    1    100.0   30 
20/05/18 12:00p   15.2   15.3   15.2    79   11.5   0.0   WNW  0.00  14.5   WNW   15.2   15.1   15.1   14.9  1036.0  0.00   0.0    60     2.58     95     0.0  0.00   0.0   0.066   0.000   27.8    33    0.05   701    1    100.0   30 
20/05/18 12:30p   14.9   15.2   14.8    80   11.5   1.6   WSW  0.80  12.9   WSW   14.9   14.8   14.8   15.1  1035.5  0.00   0.0    85     3.66    139     0.0  0.00   0.0   0.071   0.000   27.8    33    0.00   701    1    100.0   30 
20/05/18  1:00p   15.3   15.3   14.9    77   11.3   0.0   WSW  0.00   4.8   WSW   15.3   15.1   15.1   15.1  1035.3  0.00   0.0    64     2.75    125     0.0  0.00   0.0   0.064   0.000   27.9    33    0.05   702    1    100.0   30 
20/05/18  1:30p   15.6   15.6   15.3    77   11.5   0.0   WSW  0.00   8.0   WSW   15.6   15.4   15.4   15.1  1035.2  0.00   0.0    48     2.06     65     0.0  0.00   0.0   0.058   0.000   27.9    33    0.00   700    1    100.0   30 
20/05/18  2:00p   15.3   15.7   15.3    78   11.5   1.6     W  0.80  16.1   WSW   15.3   15.1   15.1   14.5  1035.2  0.00   0.0    28     1.20     58     0.0  0.00   0.0   0.064   0.000   27.9    34    0.03   700    1    100.0   30 
20/05/18  2:30p   14.7   15.3   14.7    84   12.0   0.0   WSW  0.00  12.9   WNW   14.7   14.6   14.6   14.3  1035.3  0.51   2.0    42     1.81     70     0.0  0.00   0.0   0.076   0.000   27.9    34    0.00   698    1    100.0   30 
20/05/18  3:00p   14.2   14.7   14.2    88   12.3   0.0   ---  0.00   0.0   ---   14.2   14.2   14.2   13.8  1035.2  0.00   0.0    31     1.33     49     0.0  0.00   0.0   0.086   0.000   27.9    34    0.03   699    1    100.0   30 
20/05/18  3:30p   14.3   14.3   14.2    90   12.7   0.0   ---  0.00   0.0   ---   14.3   14.3   14.3   14.5  1035.0  0.00   0.0    55     2.37    109     0.0  0.00   0.0   0.084   0.000   27.9    34    0.00   698    1    100.0   30 
20/05/18  4:00p   14.4   14.4   14.3    91   12.9   0.0   ---  0.00   0.0   ---   14.4   14.4   14.4   14.2  1035.1  0.00   0.0    33     1.42     54     0.0  0.00   0.0   0.082   0.000   27.9    34    0.03   698    1    100.0   30 
20/05/18  4:30p   14.2   14.4   14.2    91   12.8   0.0   ---  0.00   0.0   ---   14.2   14.3   14.3   13.5  1034.8  0.00   0.0    11     0.47     32     0.0  0.00   0.0   0.086   0.000   28.1    34    0.00   701    1    100.0   30 
20/05/18  5:00p   14.1   14.2   14.0    91   12.6   0.0    NW  0.00   9.7    NW   14.1   14.1   14.1   12.9  1034.8  0.25   0.0     9     0.39     14     0.0  0.00   0.0   0.089   0.000   28.1    34    0.00   701    1    100.0   30 
20/05/18  5:30p   13.9   14.1   13.9    91   12.4   0.0   ---  0.00   0.0   ---   13.9   13.9   13.9   12.7  1034.7  0.25   0.0     0     0.00      0     0.0  0.00   0.0   0.093   0.000   28.1    34    0.00   697    1    100.0   30 
20/05/18  6:00p   13.8   13.9   13.7    92   12.5   0.0   ---  0.00   0.0   ---   13.8   13.8   13.8   12.6  1034.9  0.00   0.0     0     0.00      0     0.0  0.00   0.0   0.095   0.000   28.1    35    0.00   701    1    100.0   30 
20/05/18  6:30p   13.4   13.7   13.4    92   12.2   0.0   ---  0.00   0.0   ---   13.4   13.5   13.5   12.2  1035.1  0.00   0.0     0     0.00      0     0.0  0.00   0.0   0.102   0.000   27.9    35    0.00   701    1    100.0   30 
20/05/18  7:00p   13.8   13.8   13.4    89   12.0   0.0    NW  0.00   1.6    NW   13.8   13.8   13.8   12.5  1035.1  0.00   0.0     0     0.00      0     0.0  0.00   0.0   0.095   0.000   27.9    35    0.00   665    1     97.2   30 
20/05/18  7:30p   14.1   14.1   13.8    86   11.7   0.0    NW  0.00   4.8    NW   14.1   14.0   14.0   12.7  1035.3  0.00   0.0     0     0.00      0     0.0  0.00   0.0   0.089   0.000   27.9    35    0.00   701    1    100.0   30 
20/05/18  8:00p   14.3   14.4   14.1    85   11.8   0.0    SW  0.00  11.3   WSW   14.3   14.2   14.2   12.9  1035.2  0.00   0.0     0     0.00      0     0.0  0.00   0.0   0.084   0.000   27.9    35    0.00   703    1    100.0   30 
20/05/18  8:30p   13.7   14.3   13.7    88   11.8   0.0   ---  0.00   0.0   ---   13.7   13.7   13.7   12.4  1035.2  0.00   0.0     0     0.00      0     0.0  0.00   0.0   0.096   0.000   27.9    35    0.00   700    1    100.0   30 
20/05/18  9:00p   13.6   13.7   13.6    91   12.1   0.0   SSW  0.00   3.2   SSW   13.6   13.6   13.6   12.3  1035.5  1.52  33.5     0     0.00      0     0.0  0.00   0.0   0.100   0.000   27.8    35    0.00   701    1    100.0   30 
20/05/18  9:30p   13.3   13.6   13.3    92   12.0   0.0   ---  0.00   0.0   ---   13.3   13.3   13.3   12.0  1035.3  0.76  33.5     0     0.00      0     0.0  0.00   0.0   0.105   0.000   27.9    35    0.00   702    1    100.0   30 
20/05/18 10:00p   13.1   13.3   13.1    93   12.0   0.0   ---  0.00   0.0   ---   13.1   13.2   13.2   11.9  1035.2  0.00   0.0     0     0.00      0     0.0  0.00   0.0   0.109   0.000   27.8    35    0.00   701    1    100.0   30 
20/05/18 10:30p   12.9   13.1   12.9    93   11.8   0.0   ---  0.00   0.0   ---   12.9   13.1   13.1   11.7  1035.2  0.00   0.0     0     0.00      0     0.0  0.00   0.0   0.112   0.000   27.8    35    0.00   700    1    100.0   30 
20/05/18 11:00p   12.8   12.9   12.8    94   11.9   0.0   SSW  0.00   4.8   SSW   12.8   12.9   12.9   11.6  1035.1  0.00   0.0     0     0.00      0     0.0  0.00   0.0   0.115   0.000   27.8    35    0.00   701    1    100.0   30 
20/05/18 11:30p   12.7   12.9   12.7    94   11.8   0.0   ---  0.00   0.0   ---   12.7   12.8   12.8   11.5  1034.9  0.00   0.0     0     0.00      0     0.0  0.00   0.0   0.117   0.000   27.8    36    0.00   703    1    100.0   30 
21/05/18 12:00a   12.7   12.7   12.6    92   11.4   0.0   NNE  0.00   6.4   NNE   12.7   12.7   12.7   11.4  1034.7  0.00   0.0     0     0.00      0     0.0  0.00   0.0   0.118   0.000   27.8    36    0.00   701    1    100.0   30 
21/05/18 12:30a   12.9   12.9   12.7    90   11.3   0.0   WSW  0.00   8.0   WSW   12.9   12.9   12.9   11.6  1034.7  0.00   0.0     0     0.00      0     0.0  0.00   0.0   0.113   0.000   27.8    36    0.00   700    1    100.0   30 
21/05/18  1:00a   13.1   13.1   12.9    87   10.9   0.0   ---  0.00   0.0   ---   13.1   13.1   13.1   11.7  1034.6  0.00   0.0     0     0.00      0     0.0  0.00   0.0   0.110   0.000   27.8    36    0.00   698    1    100.0   30 
21/05/18  1:30a   12.9   13.1   12.9    88   11.0   0.0    SW  0.00  19.3    SW   12.9   12.9   12.9   11.6  1034.9  0.25   0.0     0     0.00      0     0.0  0.00   0.0   0.112   0.000   27.8    36    0.00   702    1    100.0   30 
21/05/18  2:00a   12.5   13.0   12.5    91   11.1   1.6     W  0.80  19.3    SW   12.5   12.6   12.6   11.2  1034.6  0.25   2.0     0     0.00      0     0.0  0.00   0.0   0.122   0.000   27.8    36    0.00   699    1    100.0   30 
21/05/18  2:30a   12.3   12.5   12.3    92   11.1   0.0   ---  0.00   0.0   ---   12.3   12.4   12.4   11.1  1034.7  0.00   0.0     0     0.00      0     0.0  0.00   0.0   0.125   0.000   27.8    36    0.00   700    1    100.0   30 
21/05/18  3:00a   12.4   12.4   12.3    93   11.3   0.0     W  0.00   9.7     W   12.4   12.6   12.6   11.2  1034.7  0.51   1.0     0     0.00      0     0.0  0.00   0.0   0.123   0.000   27.8    36    0.00   674    1     98.5   30 
21/05/18  3:30a   12.3   12.4   12.3    94   11.4   0.0     W  0.00   9.7     W   12.3   12.4   12.4   11.1  1034.4  0.00   0.0     0     0.00      0     0.0  0.00   0.0   0.125   0.000   27.7    36    0.00   700    1    100.0   30 
21/05/18  4:00a   12.2   12.3   12.2    94   11.2   0.0     W  0.00   9.7     W   12.2   12.3   12.3   10.9  1034.3  0.00   0.0     0     0.00      0     0.0  0.00   0.0   0.128   0.000   27.7    36    0.00   700    1    100.0   30 
21/05/18  4:30a   11.6   12.2   11.6    94   10.7   0.0   ---  0.00   0.0   ---   11.6   11.8   11.8   10.4  1034.4  0.00   0.0     0     0.00      0     0.0  0.00   0.0   0.140   0.000   27.7    36    0.00   702    1    100.0   30 
21/05/18  5:00a   11.5   11.6   11.4    94   10.6   0.0   ---  0.00   0.0   ---   11.5   11.7   11.7   10.3  1034.6  0.00   0.0     0     0.00      0     0.0  0.00   0.0   0.142   0.000   27.7    36    0.00   700    1    100.0   30 
21/05/18  5:30a   11.6   11.6   11.5    94   10.6   0.0     W  0.00   1.6     W   11.6   11.7   11.7   10.4  1034.8  0.00   0.0     0     0.00      0     0.0  0.00   0.0   0.141   0.000   27.6    36    0.00   673    1     98.4   30 
21/05/18  6:00a   11.4   11.6   11.4    94   10.5   0.0   ---  0.00   0.0   ---   11.4   11.6   11.6   10.2  1035.0  0.00   0.0     0     0.00      0     0.0  0.00   0.0   0.144   0.000   27.6    36    0.00   702    1    100.0   30 
21/05/18  6:30a   11.3   11.4   11.3    95   10.6   0.0   ---  0.00   0.0   ---   11.3   11.5   11.5   10.2  1035.2  0.00   0.0     0     0.00      0     0.0  0.00   0.0   0.146   0.000   27.4    36    0.00   702    1    100.0   30 
21/05/18  7:00a   11.2   11.3   11.2    94   10.3   0.0   ---  0.00   0.0   ---   11.2   11.4   11.4   10.0  1035.4  0.00   0.0     0     0.00      0     0.0  0.00   0.0   0.148   0.000   27.6    36    0.00   701    1    100.0   30 
21/05/18  7:30a   11.2   11.2   11.1    95   10.4   0.0   ---  0.00   0.0   ---   11.2   11.3   11.3    9.9  1035.7  0.00   0.0     1     0.04      7     0.0  0.00   0.0   0.149   0.000   27.7    36    0.00   700    1    100.0   30 
21/05/18  8:00a   11.4   11.4   11.2    94   10.5   0.0     W  0.00   4.8     W   11.4   11.6   11.6   10.4  1036.0  0.00   0.0    18     0.77     28     0.0  0.00   0.0   0.145   0.000   27.9    36    0.00   700    1    100.0   30 
21/05/18  8:30a   11.7   11.7   11.4    94   10.7   0.0     W  0.00   8.0     W   11.7   11.8   11.8   12.0  1036.2  0.00   0.0    48     2.06     70     0.0  0.00   0.0   0.139   0.000   28.2    36    0.00   700    1    100.0   30 
21/05/18  9:00a   11.9   11.9   11.7    93   10.8   0.0     W  0.00   1.6     W   11.9   12.1   12.1   13.1  1036.5  0.00   0.0    90     3.87    120     0.0  0.00   0.0   0.133   0.000   28.2    37    0.03   701    1    100.0   30 
21/05/18  9:30a   12.6   12.6   11.9    90   11.0   0.0     W  0.00   9.7     W   12.6   12.6   12.6   14.8  1036.9  0.00   0.0   160     6.88    380     0.0  0.00   0.0   0.120   0.000   28.3    37    0.00   699    1    100.0   30 
21/05/18 10:00a   13.0   13.0   12.6    87   10.9   0.0     W  0.00  11.3     W   13.0   13.0   13.0   14.9  1036.8  0.00   0.0   159     6.84    213     0.1  0.02   0.5   0.111   0.000   28.4    38    0.08   698    1    100.0   30 
21/05/18 10:30a   13.6   13.6   13.0    86   11.3   0.0     W  0.00  11.3     W   13.6   13.5   13.5   16.8  1036.8  0.00   0.0   256    11.01    508     0.6  0.13   1.0   0.100   0.000   28.5    38    0.00   698    1    100.0   30 
21/05/18 11:00a   13.1   13.7   13.1    88   11.2   3.2     W  1.61  16.1     W   13.1   13.1   13.1   14.8  1037.0  0.00   0.0   159     6.84    279     0.3  0.06   0.8   0.109   0.000   28.6    39    0.10   701    1    100.0   30 
21/05/18 11:30a   13.4   13.5   13.0    90   11.8   0.0   WSW  0.00  11.3   WNW   13.4   13.4   13.4   16.3  1036.5  0.00   0.0   240    10.32    559     1.0  0.21   1.5   0.103   0.000   28.7    39    0.00   702    1    100.0   30 
21/05/18 12:00p   14.3   14.3   13.4    85   11.8   0.0     W  0.00   9.7     W   14.3   14.2   14.2   16.8  1036.1  0.00   0.0   232     9.98    615     0.8  0.17   1.7   0.084   0.000   28.8    39    0.15   697    1    100.0   30 
21/05/18 12:30p   14.2   14.3   13.7    87   12.1   1.6    NW  0.80  16.1   WSW   14.2   14.2   14.2   18.6  1035.6  0.51   3.3   364    15.65    566     1.2  0.26   1.7   0.086   0.000   28.6    39    0.00   701    1    100.0   30 
21/05/18  1:00p   14.9   14.9   14.2    77   10.9   1.6     W  0.80  16.1    SW   14.9   14.7   14.7   16.7  1035.4  0.00   0.0   195     8.39    418     0.6  0.13   1.6   0.072   0.000   28.8    40    0.15   698    1    100.0   30 
21/05/18  1:30p   15.2   15.2   14.9    75   10.8   0.0     W  0.00  11.3   WNW   15.2   14.9   14.9   15.8  1035.0  0.00   0.0   116     4.99    158     0.2  0.04   0.6   0.065   0.000   28.8    39    0.00   702    1    100.0   30 
21/05/18  2:00p   15.6   15.6   15.2    73   10.8   1.6    SW  0.80  16.1   WSW   15.6   15.3   15.3   16.8  1035.0  0.00   0.0   143     6.15    183     0.3  0.06   0.6   0.057   0.000   28.7    40    0.08   699    1    100.0   30 
21/05/18  2:30p   15.4   15.6   15.4    77   11.4   1.6   WSW  0.80  14.5     W   15.4   15.3   15.3   17.1  1034.7  0.00   0.0   156     6.71    234     0.2  0.04   0.6   0.060   0.000   28.7    40    0.00   699    1    100.0   30 
21/05/18  3:00p   15.0   15.8   15.0    82   12.0   1.6   SSW  0.80  14.5   WNW   15.0   14.9   14.9   16.1  1034.9  0.00   0.0   109     4.69    250     0.1  0.02   0.6   0.069   0.000   27.6    40    0.08   702    1    100.0   30 
21/05/18  3:30p   14.7   15.0   14.6    83   11.8   3.2   WSW  1.61  24.1     W   14.7   14.6   14.6   16.0  1035.0  0.00   0.0   112     4.82    264     0.0  0.00   0.0   0.076   0.000   27.1    41    0.00   701    1    100.0   30 
21/05/18  4:00p   15.2   15.2   14.7    79   11.5   3.2     W  1.61  16.1   WSW   15.2   15.1   15.1   16.4  1035.0  0.00   0.0   103     4.43    192     0.0  0.00   0.0   0.066   0.000   26.9    41    0.08   699    1    100.0   30 
21/05/18  4:30p   15.3   15.3   15.2    80   11.8   1.6   WSW  0.80  16.1   WSW   15.3   15.2   15.2   15.2  1035.3  0.00   0.0    37     1.59     62     0.0  0.00   0.0   0.064   0.000   27.6    42    0.00   699    1    100.0   30 
21/05/18  5:00p   15.1   15.3   15.1    76   10.9   3.2     W  1.61  20.9     W   15.1   14.8   14.8   13.6  1035.6  0.00   0.0    13     0.56     25     0.0  0.00   0.0   0.068   0.000   27.8    40    0.03   698    1    100.0   30 
21/05/18  5:30p   14.8   15.1   14.8    77   10.8   1.6   WSW  0.80  14.5   WSW   14.8   14.6   14.6   13.2  1035.9  0.00   0.0     0     0.00      5     0.0  0.00   0.0   0.074   0.000   27.8    40    0.00   700    1    100.0   30 
21/05/18  6:00p   14.4   14.8   14.4    74    9.9   1.6     W  0.80  17.7   WSW   14.4   14.1   14.1   12.7  1036.1  0.00   0.0     0     0.00      0     0.0  0.00   0.0   0.081   0.000   27.9    39    0.00   701    1    100.0   30 
21/05/18  6:30p   14.2   14.4   14.2    75    9.8   0.0     W  0.00  11.3     S   14.2   13.9   13.9   12.4  1036.4  0.00   0.0     0     0.00      0     0.0  0.00   0.0   0.087   0.000   27.9    39    0.00   699    1    100.0   30 
21/05/18  7:00p   13.8   14.2   13.8    76    9.7   0.0     W  0.00   8.0     W   13.8   13.6   13.6   12.1  1036.9  0.00   0.0     0     0.00      0     0.0  0.00   0.0   0.094   0.000   28.2    38    0.03   701    1    100.0   30 
21/05/18  7:30p   13.7   13.8   13.7    77    9.8   0.0   ---  0.00   0.0   ---   13.7   13.5   13.5   12.1  1037.0  0.00   0.0     0     0.00      0     0.0  0.00   0.0   0.096   0.000   28.1    38    0.00   701    1    100.0   30 
21/05/18  8:00p   13.4   13.7   13.4    77    9.5   0.0     W  0.00   4.8     W   13.4   13.2   13.2   11.7  1036.9  0.00   0.0     0     0.00      0     0.0  0.00   0.0   0.102   0.000   28.2    37    0.03   701    1    100.0   30 
21/05/18  8:30p   13.3   13.5   13.3    78    9.6   0.0   ---  0.00   0.0   ---   13.3   13.1   13.1   11.7  1036.7  0.00   0.0     0     0.00      0     0.0  0.00   0.0   0.104   0.000   28.3    37    0.00   702    1    100.0   30 
21/05/18  9:00p   13.2   13.3   13.2    79    9.7   0.0   ---  0.00   0.0   ---   13.2   13.0   13.0   11.6  1036.7  0.00   0.0     0     0.00      0     0.0  0.00   0.0   0.106   0.000   28.2    37    0.03   697    1    100.0   30 
21/05/18  9:30p   13.1   13.2   13.1    80    9.7   0.0   ---  0.00   0.0   ---   13.1   12.9   12.9   11.4  1036.8  0.00   0.0     0     0.00      0     0.0  0.00   0.0   0.110   0.000   28.2    37    0.00   701    1    100.0   30 
21/05/18 10:00p   12.8   13.1   12.8    82    9.8   0.0   ---  0.00   0.0   ---   12.8   12.7   12.7   11.3  1036.7  0.00   0.0     0     0.00      0     0.0  0.00   0.0   0.115   0.000   28.2    36    0.03   699    1    100.0   30 
21/05/18 10:30p   12.9   12.9   12.8    82    9.9   0.0   ---  0.00   0.0   ---   12.9   12.8   12.8   11.4  1036.7  0.00   0.0     0     0.00      0     0.0  0.00   0.0   0.112   0.000   28.1    36    0.00   678    1     99.1   30 
21/05/18 11:00p   13.1   13.1   12.9    81    9.9   0.0     W  0.00   1.6     W   13.1   12.9   12.9   11.5  1036.4  0.00   0.0     0     0.00      0     0.0  0.00   0.0   0.109   0.000   27.9    36    0.03   702    1    100.0   30 
21/05/18 11:30p   13.3   13.3   13.1    80   10.0   0.0   ---  0.00   0.0   ---   13.3   13.2   13.2   11.7  1036.3  0.00   0.0     0     0.00      0     0.0  0.00   0.0   0.104   0.000   27.9    36    0.00   698    1    100.0   30 
22/05/18 12:00a   13.4   13.4   13.3    80   10.0   0.0   ---  0.00   0.0   ---   13.4   13.2   13.2   11.8  1035.9  0.00   0.0     0     0.00      0     0.0  0.00   0.0   0.103   0.000   27.8    36    0.03   703    1    100.0   30 
22/05/18 12:30a   13.4   13.4   13.3    80   10.1   0.0     W  0.00   4.8     W   13.4   13.3   13.3   11.8  1036.1  0.00   0.0     0     0.00      0     0.0  0.00   0.0   0.102   0.000   27.8    36    0.00   700    1    100.0   30 
22/05/18  1:00a   13.7   13.7   13.4    78   10.0   0.0     W  0.00   4.8     W   13.7   13.5   13.5   12.1  1036.2  0.00   0.0     0     0.00      0     0.0  0.00   0.0   0.096   0.000   27.8    36    0.03   700    1    100.0   30 
22/05/18  1:30a   13.9   13.9   13.7    79   10.3   0.0     W  0.00   8.0     W   13.9   13.7   13.7   12.3  1036.2  0.00   0.0     0     0.00      0     0.0  0.00   0.0   0.093   0.000   27.8    36    0.00   670    1     98.0   30 
22/05/18  2:00a   13.5   13.9   13.5    83   10.7   0.0     W  0.00  16.1   WSW   13.5   13.4   13.4   12.0  1036.1  0.00   0.0     0     0.00      0     0.0  0.00   0.0   0.101   0.000   27.8    36    0.03   701    1    100.0   30 
22/05/18  2:30a   13.4   13.5   13.4    85   10.9   0.0   ---  0.00   0.0   ---   13.4   13.3   13.3   11.9  1036.1  0.00   0.0     0     0.00      0     0.0  0.00   0.0   0.103   0.000   27.8    36    0.00   702    1    100.0   30 
22/05/18  3:00a   13.4   13.5   13.4    85   11.0   0.0   ---  0.00   0.0   ---   13.4   13.4   13.4   12.0  1035.9  0.00   0.0     0     0.00      0     0.0  0.00   0.0   0.102   0.000   27.7    36    0.00   701    1    100.0   30 
22/05/18  3:30a   13.8   13.8   13.4    82   10.8   0.0     W  0.00   8.0     W   13.8   13.7   13.7   12.3  1035.9  0.00   0.0     0     0.00      0     0.0  0.00   0.0   0.095   0.000   27.7    36    0.00   702    1    100.0   30 
22/05/18  4:00a   14.1   14.1   13.8    80   10.7   0.0   WSW  0.00  11.3   WSW   14.1   13.9   13.9   12.6  1035.9  0.00   0.0     0     0.00      0     0.0  0.00   0.0   0.088   0.000   27.7    36    0.03   698    1    100.0   30 
22/05/18  4:30a   14.2   14.2   14.1    80   10.8   0.0   WNW  0.00  12.9   WNW   14.2   14.1   14.1   12.7  1035.8  0.00   0.0     0     0.00      0     0.0  0.00   0.0   0.087   0.000   27.6    36    0.00   700    1    100.0   30 
22/05/18  5:00a   14.2   14.2   14.2    79   10.6   0.0   WNW  0.00   8.0     W   14.2   14.0   14.0   12.6  1036.0  0.00   0.0     0     0.00      0     0.0  0.00   0.0   0.087   0.000   27.6    36    0.03   700    1    100.0   30 
22/05/18  5:30a   14.2   14.2   14.1    80   10.8   0.0   WSW  0.00   8.0     W   14.2   14.1   14.1   12.7  1036.0  0.00   0.0     0     0.00      0     0.0  0.00   0.0   0.087   0.000   27.6    36    0.00   663    1     96.9   30 
22/05/18  6:00a   14.3   14.3   14.2    80   10.9   1.6   WSW  0.80  14.5   WSW   14.3   14.2   14.2   12.8  1036.1  0.00   0.0     0     0.00      0     0.0  0.00   0.0   0.084   0.000   27.6    36    0.03   701    1    100.0   30 
22/05/18  6:30a   14.3   14.3   14.3    81   11.1   3.2     W  1.61  16.1     W   14.3   14.2   14.2   12.8  1036.2  0.00   0.0     0     0.00      0     0.0  0.00   0.0   0.084   0.000   27.4    36    0.00   699    1    100.0   30 
22/05/18  7:00a   14.2   14.3   14.2    82   11.2   1.6   WSW  0.80  16.1    SW   14.2   14.1   14.1   12.7  1036.5  0.00   0.0     0     0.00      0     0.0  0.00   0.0   0.086   0.000   27.4    36    0.03   701    1    100.0   30 
22/05/18  7:30a   14.2   14.2   14.2    83   11.4   1.6     W  0.80  16.1   WSW   14.2   14.1   14.1   12.7  1036.7  0.00   0.0     0     0.00      0     0.0  0.00   0.0   0.086   0.000   27.7    36    0.00   701    1    100.0   30 
22/05/18  8:00a   14.3   14.3   14.2    83   11.4   1.6    SW  0.80  12.9    SW   14.3   14.2   14.2   12.9  1037.1  0.00   0.0     8     0.34     14     0.0  0.00   0.0   0.084   0.000   27.9    36    0.00   703    1    100.0   30 
22/05/18  8:30a   14.3   14.3   14.2    83   11.5   1.6   WSW  0.80  20.9   WSW   14.3   14.3   14.3   13.7  1037.5  0.00   0.0    19     0.82     25     0.0  0.00   0.0   0.083   0.000   28.1    36    0.00   701    1    100.0   30 
22/05/18  9:00a   14.4   14.4   14.3    83   11.5   1.6    SW  0.80  14.5   WSW   14.4   14.3   14.3   13.8  1037.6  0.00   0.0    25     1.08     30     0.0  0.00   0.0   0.082   0.000   27.9    38    0.03   698    1    100.0   30 
22/05/18  9:30a   14.5   14.5   14.4    83   11.6   0.0     W  0.00   9.7     S   14.5   14.4   14.4   14.2  1037.7  0.00   0.0    39     1.68     53     0.0  0.00   0.0   0.080   0.000   28.2    38    0.00   703    1    100.0   30 
22/05/18 10:00a   14.8   14.8   14.5    83   12.0   1.6    SW  0.80  17.7   WSW   14.8   14.8   14.8   15.2  1037.8  0.00   0.0    77     3.31    104     0.0  0.00   0.0   0.073   0.000   28.2    39    0.03   702    1    100.0   30 
22/05/18 10:30a   15.2   15.2   14.8    83   12.3   1.6   WSW  0.80  12.9   WSW   15.2   15.1   15.1   16.0  1037.8  0.00   0.0   105     4.52    130     0.0  0.00   0.0   0.066   0.000   28.3    39    0.00   700    1    100.0   30 
22/05/18 11:00a   15.4   15.4   15.2    81   12.1   1.6   WSW  0.80  16.1   WSW   15.4   15.3   15.3   16.2  1037.8  0.00   0.0   112     4.82    132     0.0  0.00   0.5   0.061   0.000   28.4    40    0.05   697    1    100.0   30 
22/05/18 11:30a   15.6   15.6   15.4    81   12.3   3.2     W  1.61  16.1   WNW   15.6   15.5   15.5   16.1  1037.9  0.00   0.0    99     4.26    107     0.0  0.00   0.0   0.058   0.000   28.4    40    0.00   679    1     99.3   30 
22/05/18 12:00p   15.6   15.6   15.6    81   12.4   3.2     W  1.61  17.7     W   15.6   15.6   15.6   15.9  1037.5  0.00   0.0    88     3.78    105     0.0  0.00   0.0   0.057   0.000   28.5    41    0.05   701    1    100.0   30 
22/05/18 12:30p   15.7   15.7   15.6    81   12.4   3.2    SW  1.61  14.5     W   15.7   15.7   15.7   15.7  1037.4  0.00   0.0    66     2.84     91     0.0  0.00   0.0   0.056   0.000   28.5    41    0.00   700    1    100.0   30 
22/05/18  1:00p   15.8   15.8   15.7    82   12.7   1.6   WSW  0.80  14.5   WSW   15.8   15.8   15.8   15.7  1037.2  0.00   0.0    57     2.45     70     0.0  0.00   0.0   0.053   0.000   28.5    40    0.05   701    1    100.0   30 
22/05/18  1:30p   15.9   15.9   15.7    81   12.6   1.6   WSW  0.80  17.7   WSW   15.9   15.9   15.9   16.1  1037.2  0.00   0.0    72     3.10     83     0.0  0.00   0.0   0.051   0.000   28.5    42    0.00   701    1    100.0   30 
22/05/18  2:00p   16.0   16.0   15.9    81   12.7   0.0   WSW  0.00  14.5   WSW   16.0   16.0   16.0   15.8  1037.3  0.00   0.0    46     1.98     62     0.0  0.00   0.0   0.049   0.000   28.4    42    0.03   702    1    100.0   30 
22/05/18  2:30p   16.1   16.2   16.0    81   12.8   0.0   WSW  0.00  11.3   WSW   16.1   16.1   16.1   16.0  1037.1  0.00   0.0    49     2.11     69     0.0  0.00   0.0   0.046   0.000   28.4    42    0.00   700    1    100.0   30 
22/05/18  3:00p   16.3   16.3   16.1    80   12.9   1.6   WSW  0.80  16.1   WSW   16.3   16.4   16.4   16.6  1037.1  0.00   0.0    62     2.67     98     0.0  0.00   0.0   0.042   0.000   28.4    42    0.03   703    1    100.0   30 
22/05/18  3:30p   16.3   16.3   16.3    80   12.8   1.6    SW  0.80  14.5     W   16.3   16.3   16.3   16.2  1037.2  0.00   0.0    39     1.68     56     0.0  0.00   0.0   0.043   0.000   28.4    42    0.00   699    1    100.0   30 
22/05/18  4:00p   16.3   16.3   16.2    81   13.0   1.6   WSW  0.80  16.1   WSW   16.3   16.3   16.3   16.1  1037.3  0.00   0.0    32     1.38     42     0.0  0.00   0.0   0.043   0.000   28.4    42    0.03   700    1    100.0   30 
22/05/18  4:30p   16.1   16.3   16.1    82   13.0   1.6   WSW  0.80  11.3    SW   16.1   16.1   16.1   15.7  1037.4  0.00   0.0    23     0.99     40     0.0  0.00   0.0   0.047   0.000   28.3    42    0.00   701    1    100.0   30 
22/05/18  5:00p   15.7   16.1   15.7    84   13.0   1.6   WSW  0.80  12.9   WSW   15.7   15.8   15.8   14.6  1037.8  0.00   0.0     6     0.26     14     0.0  0.00   0.0   0.054   0.000   28.2    42    0.03   678    1     99.1   30 
22/05/18  5:30p   15.2   15.8   15.2    87   13.1   0.0   WSW  0.00   6.4   WSW   15.2   15.3   15.3   14.0  1038.2  0.00   0.0     0     0.00      0     0.0  0.00   0.0   0.065   0.000   28.1    42    0.00   700    1    100.0   30 
22/05/18  6:00p   14.6   15.2   14.6    91   13.2   1.6     S  0.80  12.9     W   14.6   14.7   14.7   13.4  1038.4  2.03  20.1     0     0.00      0     0.0  0.00   0.0   0.078   0.000   28.2    41    0.00   698    1    100.0   30 
22/05/18  6:30p   14.4   14.6   14.4    93   13.3   0.0    SW  0.00   4.8    SW   14.4   14.5   14.5   13.2  1038.7  0.76   2.3     0     0.00      0     0.0  0.00   0.0   0.082   0.000   28.1    41    0.00   680    1     99.4   30 
22/05/18  7:00p   14.2   14.4   14.2    94   13.3   0.0   SSW  0.00   9.7    SW   14.2   14.3   14.3   13.1  1039.0  0.51   2.0     0     0.00      0     0.0  0.00   0.0   0.086   0.000   28.1    41    0.00   702    1    100.0   30 
22/05/18  7:30p   14.1   14.2   14.1    94   13.1   0.0    SW  0.00   8.0    SW   14.1   14.2   14.2   12.9  1039.2  1.02   6.9     0     0.00      0     0.0  0.00   0.0   0.089   0.000   28.2    41    0.00   700    1    100.0   30 
22/05/18  8:00p   13.8   14.1   13.8    94   12.8   0.0    SW  0.00   6.4    SW   13.8   13.9   13.9   12.6  1039.3  0.25   1.8     0     0.00      0     0.0  0.00   0.0   0.095   0.000   28.2    41    0.00   678    1     99.1   30 
22/05/18  8:30p   13.7   13.8   13.7    95   12.9   0.0   SSW  0.00   6.4    SW   13.7   13.8   13.8   12.6  1039.5  0.51   2.3     0     0.00      0     0.0  0.00   0.0   0.096   0.000   28.3    40    0.00   700    1    100.0   30 
22/05/18  9:00p   13.5   13.7   13.5    95   12.7   0.0    SW  0.00   8.0   SSW   13.5   13.6   13.6   12.3  1039.5  0.25   1.0     0     0.00      0     0.0  0.00   0.0   0.101   0.000   28.3    40    0.00   698    1    100.0   30 
22/05/18  9:30p   13.3   13.5   13.3    95   12.5   0.0    SW  0.00   8.0    SW   13.3   13.4   13.4   12.1  1039.8  0.25   0.0     0     0.00      0     0.0  0.00   0.0   0.105   0.000   28.2    40    0.00   698    1    100.0   30 
22/05/18 10:00p   13.2   13.3   13.2    95   12.4   0.0   WSW  0.00   6.4   WSW   13.2   13.3   13.3   11.9  1040.0  0.00   0.0     0     0.00      0     0.0  0.00   0.0   0.108   0.000   28.3    40    0.00   701    1    100.0   30 
22/05/18 10:30p   13.1   13.2   13.1    95   12.3   0.0   ---  0.00   0.0   ---   13.1   13.2   13.2   11.9  1040.0  0.00   0.0     0     0.00      0     0.0  0.00   0.0   0.109   0.000   28.2    39    0.00   700    1    100.0   30 
22/05/18 11:00p   12.9   13.2   12.9    95   12.1   0.0   ---  0.00   0.0   ---   12.9   13.0   13.0   11.7  1039.8  0.00   0.0     0     0.00      0     0.0  0.00   0.0   0.113   0.000   28.1    40    0.00   701    1    100.0   30 
22/05/18 11:30p   12.4   12.9   12.4    95   11.7   0.0   ---  0.00   0.0   ---   12.4   12.6   12.6   11.2  1039.8  0.25   0.0     0     0.00      0     0.0  0.00   0.0   0.123   0.000   28.1    40    0.00   701    1    100.0   30 
23/05/18 12:00a   12.2   12.4   12.2    95   11.4   0.0   ---  0.00   0.0   ---   12.2   12.3   12.3   10.9  1039.5  0.00   0.0     0     0.00      0     0.0  0.00   0.0   0.128   0.000   28.1    40    0.00   701    1    100.0   30 
23/05/18 12:30a   12.0   12.2   11.9    96   11.4   0.0   ---  0.00   0.0   ---   12.0   12.2   12.2   10.8  1039.4  0.00   0.0     0     0.00      0     0.0  0.00   0.0   0.132   0.000   27.9    40    0.00   702    1    100.0   30 
23/05/18  1:00a   11.8   12.0   11.7    96   11.2   0.0   ---  0.00   0.0   ---   11.8   12.0   12.0   10.7  1039.4  0.00   0.0     0     0.00      0     0.0  0.00   0.0   0.135   0.000   27.9    39    0.00   702    1    100.0   30 
23/05/18  1:30a   12.2   12.2   11.8    96   11.5   0.0   ---  0.00   0.0   ---   12.2   12.3   12.3   10.9  1039.6  0.00   0.0     0     0.00      0     0.0  0.00   0.0   0.128   0.000   27.8    39    0.00   702    1    100.0   30 
23/05/18  2:00a   12.1   12.2   12.1    96   11.4   0.0   ---  0.00   0.0   ---   12.1   12.2   12.2   10.9  1039.7  0.00   0.0     0     0.00      0     0.0  0.00   0.0   0.131   0.000   27.8    39    0.00   700    1    100.0   30 
23/05/18  2:30a   12.1   12.2   12.1    96   11.5   0.0   ---  0.00   0.0   ---   12.1   12.3   12.3   10.9  1039.7  0.00   0.0     0     0.00      0     0.0  0.00   0.0   0.130   0.000   27.8    39    0.00   700    1    100.0   30 
23/05/18  3:00a   12.1   12.1   12.0    96   11.4   0.0   ---  0.00   0.0   ---   12.1   12.2   12.2   10.9  1039.6  0.00   0.0     0     0.00      0     0.0  0.00   0.0   0.131   0.000   27.8    39    0.00   701    1    100.0   30 
23/05/18  3:30a   11.8   12.0   11.8    96   11.2   0.0   WSW  0.00  11.3   WSW   11.8   12.0   12.0   10.7  1039.8  0.00   0.0     0     0.00      0     0.0  0.00   0.0   0.135   0.000   27.8    39    0.00   701    1    100.0   30 
23/05/18  4:00a   11.6   11.8   11.6    96   11.0   0.0   ---  0.00   0.0   ---   11.6   11.8   11.8   10.4  1039.7  0.00   0.0     0     0.00      0     0.0  0.00   0.0   0.140   0.000   27.7    39    0.00   703    1    100.0   30 
23/05/18  4:30a   11.6   11.6   11.6    96   10.9   0.0   ---  0.00   0.0   ---   11.6   11.7   11.7   10.3  1039.8  0.00   0.0     0     0.00      0     0.0  0.00   0.0   0.141   0.000   27.7    39    0.00   700    1    100.0   30 
23/05/18  5:00a   11.6   11.6   11.5    96   10.9   0.0   ---  0.00   0.0   ---   11.6   11.7   11.7   10.3  1040.1  0.00   0.0     0     0.00      0     0.0  0.00   0.0   0.141   0.000   27.6    39    0.00   703    1    100.0   30 
23/05/18  5:30a   11.7   11.7   11.5    96   11.1   0.0   ---  0.00   0.0   ---   11.7   11.8   11.8   10.4  1040.4  0.00   0.0     0     0.00      0     0.0  0.00   0.0   0.139   0.000   27.6    39    0.00   702    1    100.0   30 
23/05/18  6:00a   11.7   11.7   11.6    96   11.1   0.0   WSW  0.00   6.4   WSW   11.7   11.8   11.8   10.4  1040.8  0.00   0.0     0     0.00      0     0.0  0.00   0.0   0.139   0.000   27.6    39    0.00   676    1     98.8   30 
23/05/18  6:30a   11.7   11.7   11.6    96   11.1   0.0   ---  0.00   0.0   ---   11.7   11.8   11.8   10.4  1041.1  0.00   0.0     0     0.00      0     0.0  0.00   0.0   0.139   0.000   27.4    39    0.00   703    1    100.0   30 
23/05/18  7:00a   11.7   11.7   11.6    96   11.1   0.0   ---  0.00   0.0   ---   11.7   11.8   11.8   10.4  1041.4  0.00   0.0     0     0.00      0     0.0  0.00   0.0   0.139   0.000   27.4    39    0.00   699    1    100.0   30 
23/05/18  7:30a   11.6   11.7   11.6    96   10.9   0.0   ---  0.00   0.0   ---   11.6   11.7   11.7   10.4  1041.3  0.00   0.0     5     0.22     18     0.0  0.00   0.0   0.141   0.000   27.6    39    0.00   698    1    100.0   30 
23/05/18  8:00a   11.7   11.7   11.6    96   11.1   0.0   ---  0.00   0.0   ---   11.7   11.9   11.9   10.7  1041.5  0.00   0.0    11     0.47     12     0.0  0.00   0.0   0.138   0.000   27.8    39    0.00   700    1    100.0   30 
23/05/18  8:30a   11.8   11.8   11.7    96   11.2   0.0   ---  0.00   0.0   ---   11.8   11.9   11.9   11.9  1041.8  0.00   0.0    38     1.63     53     0.0  0.00   0.0   0.137   0.000   28.2    39    0.00   699    1    100.0   30 
23/05/18  9:00a   11.9   11.9   11.7    96   11.3   0.0   WSW  0.00   6.4   WSW   11.9   12.1   12.1   12.8  1041.9  0.00   0.0    74     3.18    113     0.0  0.00   0.0   0.133   0.000   28.2    39    0.03   701    1    100.0   30 
23/05/18  9:30a   12.4   12.4   11.9    96   11.8   0.0   WSW  0.00   8.0    SW   12.4   12.5   12.5   14.9  1041.9  0.00   0.0   167     7.18    290     0.0  0.00   0.0   0.124   0.000   28.2    40    0.00   701    1    100.0   30 
23/05/18 10:00a   12.9   12.9   12.3    94   12.0   0.0    SW  0.00   6.4    SW   12.9   13.1   13.1   15.2  1041.9  0.00   0.0   168     7.22    218     0.1  0.02   0.5   0.112   0.000   28.3    41    0.08   703    1    100.0   30 
23/05/18 10:30a   13.7   13.8   12.9    89   11.9   0.0    SW  0.00   4.8    SW   13.7   13.8   13.8   16.0  1042.0  0.00   0.0   183     7.87    206     0.5  0.11   0.9   0.096   0.000   28.3    41    0.00   699    1    100.0   30 
23/05/18 11:00a   13.9   13.9   13.6    87   11.8   0.0    SW  0.00   6.4    SW   13.9   13.9   13.9   15.7  1041.9  0.00   0.0   164     7.05    577     0.5  0.11   1.6   0.093   0.000   28.5    41    0.10   700    1    100.0   30 
23/05/18 11:30a   14.4   14.5   13.9    82   11.4   0.0   WSW  0.00   8.0   WSW   14.4   14.3   14.3   16.7  1041.6  0.00   0.0   208     8.95    352     0.9  0.19   1.3   0.081   0.000   28.5    41    0.00   702    1    100.0   30 
23/05/18 12:00p   14.6   14.7   14.4    80   11.2   0.0   WSW  0.00   6.4   WSW   14.6   14.5   14.5   16.4  1041.0  0.00   0.0   185     7.96    304     0.8  0.17   1.2   0.078   0.000   28.5    42    0.10   702    1    100.0   30 
23/05/18 12:30p   14.7   14.9   14.6    79   11.1   0.0   WSW  0.00  11.3   WSW   14.7   14.6   14.6   15.9  1040.4  0.00   0.0   145     6.24    316     0.6  0.13   1.8   0.075   0.000   28.4    41    0.00   699    1    100.0   30 
23/05/18  1:00p   14.7   14.8   14.7    79   11.1   0.0   WSW  0.00  11.3   WSW   14.7   14.5   14.5   15.1  1040.4  0.00   0.0   102     4.39    132     0.1  0.02   0.5   0.076   0.000   28.5    41    0.08   676    1     98.8   30 
23/05/18  1:30p   14.8   14.8   14.6    76   10.6   0.0   SSW  0.00   4.8   SSW   14.8   14.6   14.6   15.7  1040.3  0.00   0.0   127     5.46    151     0.3  0.06   0.6   0.073   0.000   28.2    40    0.00   702    1    100.0   30 
23/05/18  2:00p   14.8   14.9   14.8    73   10.0   0.0   WSW  0.00  14.5   WSW   14.8   14.5   14.5   15.2  1040.3  0.00   0.0   100     4.30    120     0.0  0.00   0.0   0.073   0.000   28.1    41    0.05   702    1    100.0   30 
23/05/18  2:30p   14.7   14.8   14.7    75   10.3   0.0     W  0.00  11.3     W   14.7   14.4   14.4   15.2  1040.3  0.00   0.0   102     4.39    120     0.0  0.00   0.0   0.076   0.000   28.2    41    0.00   702    1    100.0   30 
23/05/18  3:00p   14.7   14.7   14.7    72    9.7   0.0    SW  0.00  11.3   WSW   14.7   14.4   14.4   15.3  1040.3  0.00   0.0    98     4.21    120     0.0  0.00   0.0   0.075   0.000   28.4    40    0.05   699    1    100.0   30 
23/05/18  3:30p   14.5   14.8   14.5    73    9.7   0.0   WSW  0.00   8.0   WSW   14.5   14.2   14.2   14.2  1040.3  0.00   0.0    51     2.19     72     0.0  0.00   0.0   0.080   0.000   28.5    40    0.00   700    1    100.0   30 
23/05/18  4:00p   14.4   14.6   14.4    74    9.9   0.0   ---  0.00   0.0   ---   14.4   14.1   14.1   14.0  1040.3  0.00   0.0    42     1.81     49     0.0  0.00   0.0   0.081   0.000   28.5    40    0.03   700    1    100.0   30 
23/05/18  4:30p   14.4   14.4   14.4    74    9.8   0.0   WSW  0.00   6.4   WSW   14.4   14.1   14.1   13.6  1040.3  0.00   0.0    25     1.08     33     0.0  0.00   0.0   0.082   0.000   28.4    40    0.00   700    1    100.0   30 
23/05/18  5:00p   14.3   14.4   14.3    75    9.9   0.0   WSW  0.00   4.8   WSW   14.3   14.0   14.0   12.7  1040.3  0.00   0.0     7     0.30     11     0.0  0.00   0.0   0.084   0.000   28.3    39    0.03   701    1    100.0   30 
23/05/18  5:30p   14.1   14.3   14.1    76    9.9   0.0   ---  0.00   0.0   ---   14.1   13.8   13.8   12.4  1040.3  0.00   0.0     0     0.00      0     0.0  0.00   0.0   0.088   0.000   28.3    39    0.00   701    1    100.0   30 
23/05/18  6:00p   13.9   14.1   13.9    76    9.7   0.0   ---  0.00   0.0   ---   13.9   13.6   13.6   12.2  1040.4  0.00   0.0     0     0.00      0     0.0  0.00   0.0   0.093   0.000   28.3    39    0.00   677    1     99.0   30 
23/05/18  6:30p   13.9   13.9   13.9    76    9.7   0.0   ---  0.00   0.0   ---   13.9   13.6   13.6   12.2  1040.6  0.00   0.0     0     0.00      0     0.0  0.00   0.0   0.093   0.000   28.3    38    0.00   701    1    100.0   30 
23/05/18  7:00p   13.8   13.9   13.8    76    9.6   0.0   ---  0.00   0.0   ---   13.8   13.5   13.5   12.1  1040.7  0.00   0.0     0     0.00      0     0.0  0.00   0.0   0.095   0.000   28.3    38    0.03   703    1    100.0   30 
23/05/18  7:30p   13.7   13.8   13.7    76    9.6   0.0   ---  0.00   0.0   ---   13.7   13.4   13.4   12.0  1040.7  0.00   0.0     0     0.00      0     0.0  0.00   0.0   0.096   0.000   28.3    38    0.00   700    1    100.0   30 
23/05/18  8:00p   13.7   13.7   13.7    76    9.5   0.0   ---  0.00   0.0   ---   13.7   13.4   13.4   11.9  1040.8  0.00   0.0     0     0.00      0     0.0  0.00   0.0   0.097   0.000   28.3    37    0.03   703    1    100.0   30 
23/05/18  8:30p   13.6   13.7   13.6    77    9.7   0.0   ---  0.00   0.0   ---   13.6   13.4   13.4   11.9  1040.7  0.00   0.0     0     0.00      0     0.0  0.00   0.0   0.098   0.000   28.4    37    0.00   672    1     98.2   30 
23/05/18  9:00p   13.4   13.6   13.4    79    9.9   0.0   ---  0.00   0.0   ---   13.4   13.2   13.2   11.8  1040.7  0.00   0.0     0     0.00      0     0.0  0.00   0.0   0.102   0.000   28.4    36    0.03   701    1    100.0   30 
23/05/18  9:30p   13.2   13.4   13.2    78    9.5   0.0   ---  0.00   0.0   ---   13.2   13.0   13.0   11.6  1040.8  0.00   0.0     0     0.00      0     0.0  0.00   0.0   0.106   0.000   28.5    36    0.00   700    1    100.0   30 
23/05/18 10:00p   13.1   13.2   13.1    78    9.4   0.0   ---  0.00   0.0   ---   13.1   12.9   12.9   11.4  1040.9  0.00   0.0     0     0.00      0     0.0  0.00   0.0   0.109   0.000   28.5    36    0.03   700    1    100.0   30 
23/05/18 10:30p   13.2   13.2   13.1    77    9.3   0.0   WSW  0.00   1.6   WSW   13.2   12.9   12.9   11.5  1040.7  0.00   0.0     0     0.00      0     0.0  0.00   0.0   0.106   0.000   28.4    36    0.00   701    1    100.0   30 
23/05/18 11:00p   13.2   13.2   13.2    78    9.4   0.0   ---  0.00   0.0   ---   13.2   12.9   12.9   11.5  1040.6  0.00   0.0     0     0.00      0     0.0  0.00   0.0   0.108   0.000   28.4    36    0.03   701    1    100.0   30 
23/05/18 11:30p   12.8   13.2   12.8    82    9.8   0.0   ---  0.00   0.0   ---   12.8   12.7   12.7   11.3  1040.5  0.00   0.0     0     0.00      0     0.0  0.00   0.0   0.115   0.000   28.4    35    0.00   701    1    100.0   30 
24/05/18 12:00a   12.4   12.8   12.4    84    9.8   0.0   ---  0.00   0.0   ---   12.4   12.4   12.4   10.9  1040.3  0.00   0.0     0     0.00      0     0.0  0.00   0.0   0.123   0.000   28.3    35    0.03   698    1    100.0   30 
24/05/18 12:30a   12.2   12.4   12.2    85    9.8   0.0   ---  0.00   0.0   ---   12.2   12.2   12.2   10.7  1040.3  0.00   0.0     0     0.00      0     0.0  0.00   0.0   0.127   0.000   28.3    35    0.00   670    1     98.0   30 
24/05/18  1:00a   12.1   12.2   12.1    87   10.0   0.0   ---  0.00   0.0   ---   12.1   12.1   12.1   10.7  1040.3  0.00   0.0     0     0.00      0     0.0  0.00   0.0   0.130   0.000   28.2    35    0.00   703    1    100.0   30 
24/05/18  1:30a   12.0   12.1   11.9    88   10.1   0.0   ---  0.00   0.0   ---   12.0   12.0   12.0   10.6  1040.1  0.00   0.0     0     0.00      0     0.0  0.00   0.0   0.132   0.000   28.2    35    0.00   700    1    100.0   30 
24/05/18  2:00a   12.0   12.0   11.9    89   10.2   0.0   ---  0.00   0.0   ---   12.0   12.1   12.1   10.7  1040.0  0.00   0.0     0     0.00      0     0.0  0.00   0.0   0.132   0.000   28.1    35    0.00   701    1    100.0   30 
24/05/18  2:30a   11.9   12.0   11.9    89   10.2   0.0   ---  0.00   0.0   ---   11.9   12.0   12.0   10.6  1040.0  0.00   0.0     0     0.00      0     0.0  0.00   0.0   0.133   0.000   28.1    35    0.00   701    1    100.0   30 
24/05/18  3:00a   11.8   11.9   11.8    90   10.2   0.0   ---  0.00   0.0   ---   11.8   11.8   11.8   10.4  1040.1  0.00   0.0     0     0.00      0     0.0  0.00   0.0   0.137   0.000   27.9    35    0.00   702    1    100.0   30 
24/05/18  3:30a   11.8   11.8   11.7    90   10.2   0.0   ---  0.00   0.0   ---   11.8   11.8   11.8   10.4  1040.1  0.00   0.0     0     0.00      0     0.0  0.00   0.0   0.137   0.000   27.9    35    0.00   700    1    100.0   30 
24/05/18  4:00a   11.7   11.8   11.6    90   10.1   0.0   ---  0.00   0.0   ---   11.7   11.7   11.7   10.3  1039.8  0.00   0.0     0     0.00      0     0.0  0.00   0.0   0.139   0.000   27.8    35    0.00   701    1    100.0   30 
24/05/18  4:30a   11.9   11.9   11.7    88   10.0   0.0   ---  0.00   0.0   ---   11.9   11.9   11.9   10.6  1039.8  0.00   0.0     0     0.00      0     0.0  0.00   0.0   0.133   0.000   27.8    35    0.00   700    1    100.0   30 
24/05/18  5:00a   12.1   12.1   11.9    88   10.1   0.0   ---  0.00   0.0   ---   12.1   12.1   12.1   10.7  1039.9  0.00   0.0     0     0.00      0     0.0  0.00   0.0   0.131   0.000   27.8    35    0.00   702    1    100.0   30 
24/05/18  5:30a   11.9   12.1   11.9    88   10.0   0.0   ---  0.00   0.0   ---   11.9   11.9   11.9   10.6  1040.2  0.00   0.0     0     0.00      0     0.0  0.00   0.0   0.133   0.000   27.8    35    0.00   703    1    100.0   30 
24/05/18  6:00a   11.8   11.9   11.8    88    9.9   0.0   ---  0.00   0.0   ---   11.8   11.8   11.8   10.4  1040.5  0.00   0.0     0     0.00      0     0.0  0.00   0.0   0.135   0.000   27.8    35    0.00   699    1    100.0   30 
24/05/18  6:30a   12.0   12.0   11.8    88   10.1   0.0   ---  0.00   0.0   ---   12.0   12.0   12.0   10.6  1040.7  0.00   0.0     0     0.00      0     0.0  0.00   0.0   0.132   0.000   27.7    36    0.00   702    1    100.0   30 
24/05/18  7:00a   12.1   12.1   12.0    86    9.8   0.0   ---  0.00   0.0   ---   12.1   12.0   12.0   10.6  1040.8  0.00   0.0     0     0.00      0     0.0  0.00   0.0   0.131   0.000   27.7    36    0.00   682    1     99.7   30 
24/05/18  7:30a   12.3   12.3   12.1    85    9.8   0.0   ---  0.00   0.0   ---   12.3   12.2   12.2   10.8  1041.0  0.00   0.0     0     0.00      0     0.0  0.00   0.0   0.126   0.000   27.8    36    0.00   698    1    100.0   30 
24/05/18  8:00a   12.6   12.6   12.3    83    9.7   0.0   ---  0.00   0.0   ---   12.6   12.4   12.4   11.2  1041.3  0.00   0.0    12     0.52     21     0.0  0.00   0.0   0.120   0.000   28.2    35    0.00   701    1    100.0   30 
24/05/18  8:30a   12.9   12.9   12.6    82    9.9   0.0   ---  0.00   0.0   ---   12.9   12.8   12.8   12.5  1041.5  0.00   0.0    33     1.42     44     0.0  0.00   0.0   0.113   0.000   28.4    36    0.00   700    1    100.0   30 
24/05/18  9:00a   13.2   13.2   12.9    82   10.2   0.0   ---  0.00   0.0   ---   13.2   13.1   13.1   13.2  1041.6  0.00   0.0    52     2.24     56     0.0  0.00   0.0   0.106   0.000   28.4    37    0.03   700    1    100.0   30 
24/05/18  9:30a   13.4   13.4   13.2    82   10.4   0.0   ---  0.00   0.0   ---   13.4   13.3   13.3   13.6  1041.6  0.00   0.0    66     2.84     81     0.0  0.00   0.0   0.103   0.000   28.4    37    0.00   699    1    100.0   30 
24/05/18 10:00a   13.8   13.8   13.4    81   10.6   0.0   ---  0.00   0.0   ---   13.8   13.6   13.6   14.1  1041.7  0.00   0.0    78     3.35    102     0.0  0.00   0.0   0.095   0.000   28.5    38    0.05   702    1    100.0   30 
24/05/18 10:30a   14.1   14.1   13.8    74    9.5   0.0    SW  0.00   4.8    SW   14.1   13.8   13.8   14.9  1041.6  0.00   0.0   124     5.33    144     0.0  0.00   0.0   0.088   0.000   28.6    38    0.00   701    1    100.0   30 
24/05/18 11:00a   14.7   14.7   14.1    71    9.5   0.0    SW  0.00   3.2    SW   14.7   14.3   14.3   15.9  1041.5  0.00   0.0   155     6.67    204     0.4  0.09   0.8   0.076   0.000   28.7    39    0.08   697    1    100.0   30 
24/05/18 11:30a   15.0   15.0   14.7    69    9.4   1.6    SW  0.80  14.5   WSW   15.0   14.6   14.6   16.8  1041.2  0.00   0.0   208     8.95    253     0.7  0.15   0.9   0.069   0.000   28.9    39    0.00   702    1    100.0   30 
24/05/18 12:00p   15.2   15.2   14.9    70    9.7   0.0     S  0.00   6.4     S   15.2   14.8   14.8   16.8  1040.6  0.00   0.0   193     8.30    239     0.7  0.15   0.9   0.066   0.000   28.8    39    0.10   697    1    100.0   30 
24/05/18 12:30p   15.9   15.9   15.1    68   10.0   0.0    SW  0.00   9.7   SSW   15.9   15.5   15.5   19.0  1040.0  0.00   0.0   296    12.73    413     1.2  0.26   1.9   0.051   0.000   28.7    38    0.00   700    1    100.0   30 
24/05/18  1:00p   15.7   16.3   15.7    66    9.3   0.0     S  0.00  12.9    SW   15.7   15.2   15.2   17.5  1039.8  0.00   0.0   209     8.99    396     0.6  0.13   1.4   0.056   0.000   28.8    38    0.15   696    1    100.0   30 
24/05/18  1:30p   15.4   15.7   15.3    67    9.3   3.2   WSW  1.61  17.7   SSE   15.4   15.0   15.0   17.7  1039.6  0.00   0.0   231     9.93    299     0.8  0.17   1.1   0.060   0.000   28.8    38    0.00   702    1    100.0   30 
24/05/18  2:00p   15.0   15.4   15.0    75   10.6   3.2    SW  1.61  17.7    SW   15.0   14.7   14.7   16.9  1039.5  0.00   0.0   186     8.00    220     0.6  0.13   0.7   0.069   0.000   28.8    37    0.13   698    1    100.0   30 
24/05/18  2:30p   14.6   15.0   14.6    75   10.2   0.0   WSW  0.00  16.1   SSE   14.6   14.3   14.3   15.7  1039.5  0.00   0.0   129     5.55    160     0.1  0.02   0.5   0.078   0.000   28.8    38    0.00   698    1    100.0   30 
24/05/18  3:00p   15.0   15.0   14.6    74   10.4   0.0   SSW  0.00   3.2     S   15.0   14.7   14.7   15.9  1039.4  0.00   0.0   113     4.86    120     0.0  0.00   0.0   0.069   0.000   28.7    38    0.08   701    1    100.0   30 
24/05/18  3:30p   15.5   15.5   14.9    72   10.5   0.0   WSW  0.00   8.0   WSW   15.5   15.2   15.2   17.7  1039.6  0.00   0.0   167     7.18    359     0.0  0.00   0.0   0.059   0.000   28.7    38    0.00   702    1    100.0   30 
24/05/18  4:00p   14.7   15.5   14.7    76   10.5   0.0     S  0.00   8.0    SW   14.7   14.5   14.5   15.6  1039.8  0.00   0.0    90     3.87    132     0.0  0.00   0.0   0.075   0.000   28.7    38    0.08   699    1    100.0   30 
24/05/18  4:30p   14.4   14.7   14.4    80   11.0   0.0    SW  0.00   4.8    SW   14.4   14.3   14.3   13.9  1040.0  0.00   0.0    26     1.12     60     0.0  0.00   0.0   0.082   0.000   28.6    38    0.00   700    1    100.0   30 
24/05/18  5:00p   14.1   14.4   14.1    82   11.1   0.0    SW  0.00   6.4    SW   14.1   14.0   14.0   12.8  1040.1  0.00   0.0    12     0.52     18     0.0  0.00   0.0   0.088   0.000   28.5    38    0.03   699    1    100.0   30 
24/05/18  5:30p   13.9   14.1   13.9    82   10.9   0.0    SW  0.00   4.8    SW   13.9   13.8   13.8   12.4  1040.3  0.00   0.0     0     0.00      0     0.0  0.00   0.0   0.091   0.000   28.4    38    0.00   701    1    100.0   30 
24/05/18  6:00p   13.9   14.0   13.9    82   10.9   0.0    SW  0.00   3.2    SW   13.9   13.8   13.8   12.4  1040.5  0.00   0.0     0     0.00      0     0.0  0.00   0.0   0.091   0.000   28.4    38    0.00   672    1     98.2   30 
24/05/18  6:30p   13.8   14.0   13.8    83   11.0   0.0   ---  0.00   0.0   ---   13.8   13.7   13.7   12.3  1040.7  0.00   0.0     0     0.00      0     0.0  0.00   0.0   0.094   0.000   28.3    38    0.00   703    1    100.0   30 
24/05/18  7:00p   13.2   13.8   13.2    83   10.3   0.0   ---  0.00   0.0   ---   13.2   13.1   13.1   11.7  1040.9  0.00   0.0     0     0.00      0     0.0  0.00   0.0   0.108   0.000   28.3    38    0.03   697    1    100.0   30 
24/05/18  7:30p   11.8   13.1   11.8    86    9.6   0.0   ---  0.00   0.0   ---   11.8   11.8   11.8   10.3  1041.1  0.00   0.0     0     0.00      0     0.0  0.00   0.0   0.135   0.000   28.3    37    0.00   674    1     98.5   30 
24/05/18  8:00p   11.3   11.8   11.3    89    9.5   0.0   ---  0.00   0.0   ---   11.3   11.3   11.3    9.9  1041.1  0.00   0.0     0     0.00      0     0.0  0.00   0.0   0.147   0.000   28.4    37    0.00   700    1    100.0   30 
24/05/18  8:30p   10.6   11.3   10.6    90    9.0   0.0   ---  0.00   0.0   ---   10.6   10.7   10.7    9.3  1041.1  0.00   0.0     0     0.00      0     0.0  0.00   0.0   0.161   0.000   28.4    36    0.00   700    1    100.0   30 
24/05/18  9:00p    9.8   10.6    9.8    91    8.4   0.0   ---  0.00   0.0   ---    9.8    9.9    9.9    8.4  1041.3  0.00   0.0     0     0.00      0     0.0  0.00   0.0   0.178   0.000   28.4    36    0.00   699    1    100.0   30 
24/05/18  9:30p    9.2    9.8    9.2    92    8.0   0.0   ---  0.00   0.0   ---    9.2    9.4    9.4    7.9  1041.4  0.00   0.0     0     0.00      0     0.0  0.00   0.0   0.190   0.000   28.2    36    0.00   697    1    100.0   30 
24/05/18 10:00p    9.0    9.2    9.0    93    7.9   0.0   ---  0.00   0.0   ---    9.0    9.2    9.2    7.7  1041.7  0.00   0.0     0     0.00      0     0.0  0.00   0.0   0.194   0.000   27.9    35    0.00   701    1    100.0   30 
24/05/18 10:30p    8.9    9.0    8.8    93    7.8   0.0   ---  0.00   0.0   ---    8.9    9.1    9.1    7.6  1041.9  0.00   0.0     0     0.00      0     0.0  0.00   0.0   0.197   0.000   27.8    35    0.00   699    1    100.0   30 
24/05/18 11:00p    9.3    9.3    8.9    94    8.4   0.0   ---  0.00   0.0   ---    9.3    9.5    9.5    8.0  1041.9  0.00   0.0     0     0.00      0     0.0  0.00   0.0   0.189   0.000   27.8    35    0.00   700    1    100.0   30 
24/05/18 11:30p    9.3    9.3    9.2    94    8.4   0.0   ---  0.00   0.0   ---    9.3    9.5    9.5    8.0  1041.9  0.00   0.0     0     0.00      0     0.0  0.00   0.0   0.189   0.000   27.7    35    0.00   700    1    100.0   30 
25/05/18 12:00a    9.7    9.7    9.3    95    8.9   0.0   ---  0.00   0.0   ---    9.7    9.9    9.9    8.5  1042.1  0.00   0.0     0     0.00      0     0.0  0.00   0.0   0.181   0.000   27.7    35    0.00   701    1    100.0   30 
25/05/18 12:30a    9.7    9.8    9.6    95    9.0   0.0   ---  0.00   0.0   ---    9.7   10.0   10.0    8.6  1042.1  0.00   0.0     0     0.00      0     0.0  0.00   0.0   0.179   0.000   27.6    35    0.00   673    1     98.4   30 
25/05/18  1:00a    9.9    9.9    9.7    95    9.1   0.0   ---  0.00   0.0   ---    9.9   10.2   10.2    8.7  1041.9  0.00   0.0     0     0.00      0     0.0  0.00   0.0   0.176   0.000   27.6    35    0.00   700    1    100.0   30 
25/05/18  1:30a   10.0   10.1    9.9    95    9.2   0.0   ---  0.00   0.0   ---   10.0   10.3   10.3    8.8  1041.7  0.00   0.0     0     0.00      0     0.0  0.00   0.0   0.174   0.000   27.6    35    0.00   701    1    100.0   30 
25/05/18  2:00a    9.9   10.0    9.9    95    9.2   0.0   ---  0.00   0.0   ---    9.9   10.2   10.2    8.8  1041.6  0.00   0.0     0     0.00      0     0.0  0.00   0.0   0.175   0.000   27.6    35    0.00   700    1    100.0   30 
25/05/18  2:30a    9.9   10.0    9.8    95    9.1   0.0   ---  0.00   0.0   ---    9.9   10.2   10.2    8.7  1041.6  0.00   0.0     0     0.00      0     0.0  0.00   0.0   0.176   0.000   27.4    35    0.00   700    1    100.0   30 
25/05/18  3:00a    9.7    9.9    9.7    95    8.9   0.0   ---  0.00   0.0   ---    9.7    9.9    9.9    8.5  1041.6  0.00   0.0     0     0.00      0     0.0  0.00   0.0   0.181   0.000   27.3    35    0.00   701    1    100.0   30 
25/05/18  3:30a    9.6    9.7    9.6    95    8.8   0.0   ---  0.00   0.0   ---    9.6    9.9    9.9    8.4  1041.5  0.00   0.0     0     0.00      0     0.0  0.00   0.0   0.182   0.000   27.3    35    0.00   701    1    100.0   30 
25/05/18  4:00a    9.4    9.7    9.4    92    8.2   0.0   ---  0.00   0.0   ---    9.4    9.7    9.7    8.2  1041.3  0.00   0.0     0     0.00      0     0.0  0.00   0.0   0.185   0.000   27.2    35    0.00   700    1    100.0   30 
25/05/18  4:30a    9.4    9.4    9.3    91    8.0   0.0   ---  0.00   0.0   ---    9.4    9.6    9.6    8.1  1041.2  0.00   0.0     0     0.00      0     0.0  0.00   0.0   0.185   0.000   27.2    35    0.00   676    1     98.8   30 
25/05/18  5:00a    9.7    9.7    9.4    89    8.0   0.0   ---  0.00   0.0   ---    9.7    9.9    9.9    8.4  1041.1  0.00   0.0     0     0.00      0     0.0  0.00   0.0   0.179   0.000   27.1    35    0.00   702    1    100.0   30 
25/05/18  5:30a    9.7    9.8    9.6    89    7.9   0.0   ---  0.00   0.0   ---    9.7    9.8    9.8    8.3  1041.2  0.00   0.0     0     0.00      0     0.0  0.00   0.0   0.181   0.000   27.1    35    0.00   700    1    100.0   30 
25/05/18  6:00a    9.7    9.7    9.7    89    8.0   0.0   ---  0.00   0.0   ---    9.7    9.9    9.9    8.4  1041.3  0.00   0.0     0     0.00      0     0.0  0.00   0.0   0.179   0.000   27.0    35    0.00   701    1    100.0   30 
25/05/18  6:30a    9.6    9.7    9.6    89    7.8   0.0   ---  0.00   0.0   ---    9.6    9.7    9.7    8.2  1041.4  0.00   0.0     0     0.00      0     0.0  0.00   0.0   0.183   0.000   27.0    34    0.00   701    1    100.0   30 
25/05/18  7:00a    9.1    9.6    9.1    89    7.3   0.0   ---  0.00   0.0   ---    9.1    9.2    9.2    7.7  1041.7  0.00   0.0     0     0.00      0     0.0  0.00   0.0   0.193   0.000   27.0    34    0.00   702    1    100.0   30 
25/05/18  7:30a    8.6    9.1    8.5    90    7.0   0.0   ---  0.00   0.0   ---    8.6    8.7    8.7    7.2  1042.1  0.00   0.0     2     0.09     11     0.0  0.00   0.0   0.204   0.000   27.1    34    0.00   702    1    100.0   30 
25/05/18  8:00a    8.9    8.9    8.5    92    7.7   0.0   ---  0.00   0.0   ---    8.9    9.1    9.1    8.0  1042.4  0.00   0.0    33     1.42     62     0.0  0.00   0.0   0.196   0.000   27.3    34    0.00   700    1    100.0   30 
25/05/18  8:30a   10.3   10.3    8.9    89    8.5   0.0   ---  0.00   0.0   ---   10.3   10.4   10.4   11.6  1042.8  0.00   0.0    99     4.26    156     0.0  0.00   0.0   0.168   0.000   27.6    34    0.00   702    1    100.0   30 
25/05/18  9:00a   11.6   11.6   10.3    79    8.1   0.0   ---  0.00   0.0   ---   11.6   11.4   11.4   13.8  1043.1  0.00   0.0   163     7.01    251     0.0  0.00   0.0   0.140   0.000   27.4    35    0.05   700    1    100.0   30 
25/05/18  9:30a   12.8   12.8   11.6    70    7.5   0.0    SW  0.00   3.2    SW   12.8   12.4   12.4   16.6  1043.1  0.00   0.0   291    12.51    327     0.2  0.04   0.6   0.115   0.000   27.6    35    0.00   701    1    100.0   30 
25/05/18 10:00a   12.7   13.1   12.7    70    7.4   0.0    SW  0.00   1.6    SW   12.7   12.3   12.3   14.5  1043.2  0.25   0.0   178     7.65    294     0.6  0.13   0.6   0.117   0.000   27.8    35    0.13   702    1    100.0   30 
25/05/18 10:30a   13.8   13.9   12.7    66    7.6   0.0    SW  0.00   3.2    SW   13.8   13.3   13.3   18.2  1043.2  0.00   0.0   385    16.56    455     1.0  0.21   1.2   0.094   0.000   28.2    35    0.00   702    1    100.0   30 
25/05/18 11:00a   14.0   14.1   13.6    64    7.3   0.0    SW  0.00   4.8    SW   14.0   13.4   13.4   18.6  1043.2  0.00   0.0   438    18.84    448     1.3  0.28   1.5   0.090   0.000   28.4    34    0.20   699    1    100.0   30 
25/05/18 11:30a   14.1   14.1   13.8    64    7.3   0.0    SW  0.00   3.2    SW   14.1   13.4   13.4   18.7  1042.8  0.00   0.0   457    19.65    466     1.6  0.34   1.7   0.089   0.000   28.4    34    0.00   700    1    100.0   30 
25/05/18 12:00p   14.8   14.8   14.1    62    7.6   0.0    SW  0.00   6.4    SW   14.8   14.1   14.1   19.4  1042.4  0.00   0.0   475    20.43    482     1.8  0.39   1.8   0.074   0.000   28.5    34    0.23   702    1    100.0   30 
25/05/18 12:30p   15.1   15.2   14.8    62    7.9   0.0    SW  0.00   4.8    SW   15.1   14.4   14.4   19.8  1042.0  0.00   0.0   482    20.73    487     1.9  0.41   1.9   0.067   0.000   28.4    33    0.00   699    1    100.0   30 
25/05/18  1:00p   15.3   15.3   14.9    62    8.0   0.0    SW  0.00   4.8    SW   15.3   14.6   14.6   19.9  1041.5  0.00   0.0   472    20.30    480     1.8  0.39   1.9   0.064   0.000   28.3    33    0.25   695    1    100.0   30 
25/05/18  1:30p   15.5   15.5   15.2    62    8.2   0.0   SSW  0.00   6.4   SSW   15.5   14.9   14.9   20.1  1040.9  0.00   0.0   450    19.35    462     1.6  0.34   1.7   0.059   0.000   28.4    32    0.00   701    1    100.0   30 
25/05/18  2:00p   16.2   16.2   15.5    59    8.2   0.0   SSW  0.00   4.8   SSW   16.2   15.5   15.5   20.6  1040.6  0.00   0.0   413    17.76    432     1.4  0.30   1.5   0.044   0.000   28.3    32    0.23   702    1    100.0   30 
25/05/18  2:30p   16.3   16.3   16.0    59    8.3   0.0   SSW  0.00   1.6   SSW   16.3   15.6   15.6   20.4  1040.3  0.00   0.0   365    15.70    390     1.1  0.24   1.3   0.042   0.000   28.3    32    0.00   671    1     98.1   30 
25/05/18  3:00p   16.4   16.9   16.3    59    8.4   0.0   SSW  0.00   1.6   SSW   16.4   15.7   15.7   20.0  1040.0  0.00   0.0   304    13.07    334     0.8  0.17   1.0   0.039   0.000   28.2    32    0.18   695    1    100.0   30 
25/05/18  3:30p   15.9   16.4   15.9    61    8.4   0.0   ---  0.00   0.0   ---   15.9   15.2   15.2   18.8  1039.9  0.00   0.0   236    10.15    271     0.4  0.09   0.7   0.051   0.000   28.2    32    0.00   702    1    100.0   30 
25/05/18  4:00p   15.7   15.9   15.7    63    8.7   0.0   ---  0.00   0.0   ---   15.7   15.2   15.2   17.1  1039.9  0.00   0.0   134     5.76    199     0.0  0.00   0.0   0.054   0.000   28.2    32    0.10   698    1    100.0   30 
25/05/18  4:30p   14.5   15.7   14.5    68    8.7   0.0   ---  0.00   0.0   ---   14.5   14.0   14.0   13.7  1040.0  0.00   0.0    32     1.38     44     0.0  0.00   0.0   0.080   0.000   28.1    33    0.00   701    1    100.0   30 
25/05/18  5:00p   13.2   14.5   13.2    73    8.5   0.0   ---  0.00   0.0   ---   13.2   12.8   12.8   11.6  1040.3  0.00   0.0    17     0.73     25     0.0  0.00   0.0   0.106   0.000   28.1    33    0.03   701    1    100.0   30 
25/05/18  5:30p   12.6   13.2   12.6    76    8.5   0.0   SSW  0.00   6.4   SSW   12.6   12.3   12.3   10.8  1040.6  0.00   0.0     2     0.09      9     0.0  0.00   0.0   0.119   0.000   28.3    33    0.00   702    1    100.0   30 
25/05/18  6:00p   11.4   12.6   11.4    77    7.5   0.0   ---  0.00   0.0   ---   11.4   11.2   11.2    9.6  1040.7  0.00   0.0     0     0.00      0     0.0  0.00   0.0   0.145   0.000   28.2    32    0.00   699    1    100.0   30 
25/05/18  6:30p    9.9   11.4    9.9    81    6.8   0.0   ---  0.00   0.0   ---    9.9    9.9    9.9    8.4  1041.0  0.00   0.0     0     0.00      0     0.0  0.00   0.0   0.175   0.000   28.3    32    0.00   703    1    100.0   30 
25/05/18  7:00p    9.1    9.9    9.1    86    6.8   0.0   ---  0.00   0.0   ---    9.1    9.1    9.1    7.6  1041.3  0.00   0.0     0     0.00      0     0.0  0.00   0.0   0.193   0.000   28.3    32    0.03   675    1     98.7   30 
25/05/18  7:30p    8.3    9.1    8.3    87    6.2   0.0   ---  0.00   0.0   ---    8.3    8.3    8.3    6.8  1041.8  0.00   0.0     0     0.00      0     0.0  0.00   0.0   0.209   0.000   28.1    32    0.00   699    1    100.0   30 
25/05/18  8:00p    7.9    8.3    7.9    90    6.4   0.0   ---  0.00   0.0   ---    7.9    8.0    8.0    6.4  1042.0  0.00   0.0     0     0.00      0     0.0  0.00   0.0   0.216   0.000   27.8    32    0.00   701    1    100.0   30 
25/05/18  8:30p    7.6    7.9    7.6    91    6.2   0.0   ---  0.00   0.0   ---    7.6    7.7    7.7    6.1  1042.1  0.00   0.0     0     0.00      0     0.0  0.00   0.0   0.223   0.000   27.7    32    0.00   700    1    100.0   30 
25/05/18  9:00p    7.7    7.7    7.5    92    6.5   0.0   ---  0.00   0.0   ---    7.7    7.8    7.8    6.3  1042.3  0.00   0.0     0     0.00      0     0.0  0.00   0.0   0.221   0.000   27.3    32    0.00   702    1    100.0   30 
25/05/18  9:30p    7.3    7.8    7.3    92    6.1   0.0   ---  0.00   0.0   ---    7.3    7.4    7.4    5.8  1042.6  0.00   0.0     0     0.00      0     0.0  0.00   0.0   0.229   0.000   27.1    31    0.00   702    1    100.0   30 
25/05/18 10:00p    6.9    7.3    6.9    93    5.9   0.0   ---  0.00   0.0   ---    6.9    7.1    7.1    5.4  1042.5  0.00   0.0     0     0.00      0     0.0  0.00   0.0   0.237   0.000   26.9    31    0.00   701    1    100.0   30 
25/05/18 10:30p    6.8    6.9    6.8    93    5.7   0.0   ---  0.00   0.0   ---    6.8    6.9    6.9    5.3  1042.4  0.00   0.0     0     0.00      0     0.0  0.00   0.0   0.241   0.000   26.7    31    0.00   701    1    100.0   30 
25/05/18 11:00p    6.3    6.8    6.3    94    5.4   0.0   ---  0.00   0.0   ---    6.3    6.4    6.4    4.8  1042.2  0.00   0.0     0     0.00      0     0.0  0.00   0.0   0.250   0.000   26.6    31    0.00   702    1    100.0   30 
25/05/18 11:30p    6.2    6.3    6.2    94    5.3   0.0   ---  0.00   0.0   ---    6.2    6.3    6.3    4.7  1041.9  0.00   0.0     0     0.00      0     0.0  0.00   0.0   0.252   0.000   26.4    31    0.00   701    1    100.0   30 
26/05/18 12:00a    5.6    6.2    5.6    94    4.7   0.0   ---  0.00   0.0   ---    5.6    5.6    5.6    3.9  1041.7  0.00   0.0     0     0.00      0     0.0  0.00   0.0   0.266   0.000   26.2    31    0.00   699    1    100.0   30 
26/05/18 12:30a    4.8    5.6    4.8    94    3.9   0.0   ---  0.00   0.0   ---    4.8    4.8    4.8    3.2  1041.3  0.00   0.0     0     0.00      0     0.0  0.00   0.0   0.282   0.000   26.0    31    0.00   701    1    100.0   30 
26/05/18  1:00a    4.3    4.7    4.3    94    3.5   0.0   ---  0.00   0.0   ---    4.3    4.3    4.3    2.7  1041.2  0.00   0.0     0     0.00      0     0.0  0.00   0.0   0.292   0.000   25.8    31    0.00   702    1    100.0   30 
26/05/18  1:30a    3.8    4.3    3.8    94    3.0   0.0   ---  0.00   0.0   ---    3.8    3.8    3.8    2.1  1041.1  0.00   0.0     0     0.00      0     0.0  0.00   0.0   0.302   0.000   25.7    31    0.00   700    1    100.0   30 
26/05/18  2:00a    3.6    3.8    3.6    94    2.7   0.0   ---  0.00   0.0   ---    3.6    3.6    3.6    1.8  1041.0  0.00   0.0     0     0.00      0     0.0  0.00   0.0   0.308   0.000   25.6    30    0.00   701    1    100.0   30 
26/05/18  2:30a    3.1    3.6    3.1    94    2.2   0.0   ---  0.00   0.0   ---    3.1    3.1    3.1    1.4  1040.8  0.00   0.0     0     0.00      0     0.0  0.00   0.0   0.317   0.000   25.4    30    0.00   702    1    100.0   30 
26/05/18  3:00a    2.9    3.2    2.9    94    2.1   0.0   ---  0.00   0.0   ---    2.9    2.9    2.9    1.2  1040.9  0.00   0.0     0     0.00      0     0.0  0.00   0.0   0.321   0.000   25.2    30    0.00   698    1    100.0   30 
26/05/18  3:30a    2.6    2.9    2.6   100    2.6   0.0   ---  0.00   0.0   ---    2.6    2.7    2.7    0.9  1040.8  0.00   0.0     0     0.00      0     0.0  0.00   0.0   0.328   0.000   25.0    30    0.00   676    1     98.8   30 
26/05/18  4:00a    2.3    2.6    2.3    95    1.6   0.0   ---  0.00   0.0   ---    2.3    2.3    2.3    0.5  1041.0  0.00   0.0     0     0.00      0     0.0  0.00   0.0   0.334   0.000   24.9    30    0.00   702    1    100.0   30 
26/05/18  4:30a    3.0    3.0    2.3    96    2.4   0.0   ---  0.00   0.0   ---    3.0    3.0    3.0    1.3  1040.9  0.00   0.0     0     0.00      0     0.0  0.00   0.0   0.319   0.000   24.7    30    0.00   699    1    100.0   30 
26/05/18  5:00a    3.6    3.6    3.0    96    3.0   0.0   ---  0.00   0.0   ---    3.6    3.6    3.6    1.8  1041.0  0.00   0.0     0     0.00      0     0.0  0.00   0.0   0.308   0.000   24.7    30    0.00   700    1    100.0   30 
26/05/18  5:30a    3.7    3.7    3.5    96    3.1   0.0   ---  0.00   0.0   ---    3.7    3.7    3.7    2.0  1041.2  0.25   0.0     0     0.00      0     0.0  0.00   0.0   0.304   0.000   24.6    30    0.00   680    1     99.4   30 
26/05/18  6:00a    3.8    3.8    3.7    96    3.2   0.0   ---  0.00   0.0   ---    3.8    3.8    3.8    2.1  1041.2  0.00   0.0     0     0.00      0     0.0  0.00   0.0   0.303   0.000   24.7    30    0.00   701    1    100.0   30 
26/05/18  6:30a    3.4    3.8    3.4    95    2.7   0.0   ---  0.00   0.0   ---    3.4    3.4    3.4    1.7  1041.4  0.00   0.0     0     0.00      0     0.0  0.00   0.0   0.311   0.000   24.7    30    0.00   679    1     99.3   30 
26/05/18  7:00a    3.3    3.4    3.3    96    2.7   0.0   ---  0.00   0.0   ---    3.3    3.3    3.3    1.6  1041.8  0.00   0.0     0     0.00      0     0.0  0.00   0.0   0.314   0.000   24.7    30    0.00   675    1     98.7   30 
26/05/18  7:30a    3.3    3.3    3.3    96    2.8   0.0   ---  0.00   0.0   ---    3.3    3.3    3.3    1.6  1041.9  0.00   0.0     1     0.04      7     0.0  0.00   0.0   0.313   0.000   24.6    30    0.00   702    1    100.0   30 
26/05/18  8:00a    3.2    3.4    3.2    96    2.6   0.0   ---  0.00   0.0   ---    3.2    3.2    3.2    1.8  1042.2  0.00   0.0    21     0.90     46     0.0  0.00   0.0   0.315   0.000   24.6    30    0.00   703    1    100.0   30 
26/05/18  8:30a    4.1    4.1    3.2    97    3.6   0.0   SSW  0.00   1.6   SSW    4.1    4.1    4.1    4.9  1042.5  0.00   0.0    87     3.74    141     0.0  0.00   0.0   0.297   0.000   24.6    30    0.00   701    1    100.0   30 
26/05/18  9:00a    5.4    5.4    4.1    97    5.0   0.0   SSW  0.00   1.6   SSW    5.4    5.4    5.4    8.2  1042.8  0.00   0.0   194     8.34    271     0.0  0.00   0.0   0.270   0.000   24.6    30    0.05   703    1    100.0   30 
26/05/18  9:30a    6.6    6.6    5.4    97    6.1   0.0   ---  0.00   0.0   ---    6.6    6.7    6.7   10.4  1042.2  0.00   0.0   253    10.88    287     0.0  0.00   0.0   0.245   0.000   24.7    30    0.00   702    1    100.0   30 
26/05/18 10:00a    8.1    8.1    6.6    97    7.6   0.0   ---  0.00   0.0   ---    8.1    8.3    8.3   12.6  1042.0  0.00   0.0   317    13.63    348     0.3  0.06   0.6   0.214   0.000   24.8    30    0.13   702    1    100.0   30 
26/05/18 10:30a    9.9    9.9    8.1    96    9.3   0.0   ---  0.00   0.0   ---    9.9   10.2   10.2   15.1  1041.7  0.00   0.0   376    16.17    401     0.8  0.17   0.9   0.175   0.000   25.0    31    0.00   702    1    100.0   30 
26/05/18 11:00a   11.4   11.4    9.9    90    9.9   0.0   ---  0.00   0.0   ---   11.4   11.5   11.5   16.7  1041.5  0.00   0.0   421    18.11    439     1.1  0.24   1.2   0.144   0.000   25.2    31    0.18   702    1    100.0   30 
26/05/18 11:30a   13.8   13.8   11.4    80   10.4   0.0   ---  0.00   0.0   ---   13.8   13.6   13.6   18.9  1040.9  0.00   0.0   456    19.61    469     1.3  0.28   1.5   0.095   0.000   25.4    31    0.00   703    1    100.0   30 
26/05/18 12:00p   15.4   15.4   13.8    74   10.8   0.0   SSW  0.00   1.6   SSW   15.4   15.1   15.1   20.6  1040.6  0.00   0.0   476    20.47    480     1.6  0.34   1.6   0.061   0.000   25.6    31    0.23   700    1    100.0   30 
26/05/18 12:30p   16.8   16.8   15.4    70   11.3   0.0   SSW  0.00   1.6   SSW   16.8   16.5   16.5   22.0  1040.0  0.00   0.0   480    20.64    482     1.6  0.34   1.6   0.032   0.000   25.9    31    0.00   701    1    100.0   30 
26/05/18  1:00p   18.2   18.2   16.8    67   11.9   0.0   SSW  0.00   1.6   SSW   18.2   18.1   18.1   23.6  1039.6  0.00   0.0   472    20.30    478     1.6  0.34   1.6   0.003   0.000   26.2    31    0.25   701    1    100.0   30 
26/05/18  1:30p   19.8   19.8   18.2    58   11.3   0.0   ESE  0.00   9.7   SSE   19.8   19.4   19.4   24.8  1039.2  0.00   0.0   451    19.40    462     1.5  0.32   1.6   0.000   0.030   26.5    31    0.00   702    1    100.0   30 
26/05/18  2:00p   20.3   20.4   19.7    54   10.7   1.6     N  0.80  11.3     N   20.3   19.8   19.8   25.0  1038.9  0.00   0.0   417    17.93    438     1.3  0.28   1.5   0.000   0.042   26.8    31    0.25   698    1    100.0   30 
26/05/18  2:30p   20.3   20.3   20.1    53   10.4   1.6   NNE  0.80  11.3   NNE   20.3   19.7   19.7   24.6  1038.5  0.00   0.0   370    15.91    394     1.1  0.24   1.2   0.000   0.041   27.0    31    0.00   702    1    100.0   30 
26/05/18  3:00p   20.3   20.6   20.3    52   10.1   1.6   NNE  0.80  12.9   NNE   20.3   19.6   19.6   24.1  1038.5  0.00   0.0   308    13.25    343     0.8  0.17   1.0   0.000   0.041   27.2    31    0.20   701    1    100.0   30 
26/05/18  3:30p   20.0   20.7   20.0    55   10.7   0.0   NNE  0.00   6.4   NNE   20.0   19.6   19.6   22.5  1038.5  0.00   0.0   192     8.26    271     0.4  0.09   0.6   0.000   0.035   27.4    32    0.00   700    1    100.0   30 
26/05/18  4:00p   18.8   19.9   18.8    59   10.6   0.0   NNE  0.00   3.2   NNE   18.8   18.4   18.4   19.5  1038.4  0.00   0.0    90     3.87    116     0.0  0.00   0.0   0.000   0.010   27.4    32    0.10   701    1    100.0   30 
26/05/18  4:30p   17.8   18.8   17.8    64   10.9   0.0   ---  0.00   0.0   ---   17.8   17.5   17.5   17.8  1038.5  0.00   0.0    52     2.24     67     0.0  0.00   0.0   0.010   0.000   27.4    32    0.00   698    1    100.0   30 
26/05/18  5:00p   16.1   17.8   16.1    68   10.1   0.0   ---  0.00   0.0   ---   16.1   15.7   15.7   14.5  1038.6  0.00   0.0    26     1.12     39     0.0  0.00   0.0   0.047   0.000   27.4    32    0.03   703    1    100.0   30 
26/05/18  5:30p   13.9   16.1   13.9    73    9.2   0.0   ---  0.00   0.0   ---   13.9   13.6   13.6   12.1  1038.8  0.00   0.0     1     0.04      9     0.0  0.00   0.0   0.091   0.000   27.4    32    0.00   700    1    100.0   30 
26/05/18  6:00p   12.1   13.9   12.1    81    8.9   0.0   ---  0.00   0.0   ---   12.1   11.9   11.9   10.4  1038.9  0.00   0.0     0     0.00      0     0.0  0.00   0.0   0.130   0.000   27.3    32    0.00   703    1    100.0   30 
26/05/18  6:30p   11.0   12.2   11.0    85    8.6   0.0   ---  0.00   0.0   ---   11.0   11.0   11.0    9.4  1039.3  0.00   0.0     0     0.00      0     0.0  0.00   0.0   0.153   0.000   27.1    33    0.00   702    1    100.0   30 
26/05/18  7:00p   10.2   11.0   10.2    88    8.3   0.0   ---  0.00   0.0   ---   10.2   10.3   10.3    8.7  1039.5  0.00   0.0     0     0.00      0     0.0  0.00   0.0   0.170   0.000   27.0    33    0.00   700    1    100.0   30 
26/05/18  7:30p    9.6   10.2    9.6    89    7.8   0.0   ---  0.00   0.0   ---    9.6    9.7    9.7    8.1  1039.7  0.00   0.0     0     0.00      0     0.0  0.00   0.0   0.183   0.000   26.8    33    0.00   699    1    100.0   30